<?xml version='1.0' encoding='UTF-8'?><gpx version="1.1" creator="JPX - https://github.com/jenetics/jpx" xmlns="http://www.topografix.com/GPX/1/1"><trk><trkseg><trkpt lat="44.830572619564684" lon="4.809328306003003"><ele>97.00000000000001</ele><time>2026-04-24T15:40:50.319Z</time></trkpt><trkpt lat="44.83065119098786" lon="4.809249952914298"><ele>97.0</ele><time>2026-04-24T15:40:53.169Z</time></trkpt><trkpt lat="44.830714243754656" lon="4.809200532891176"><ele>97.0</ele><time>2026-04-24T15:40:55.069Z</time></trkpt><trkpt lat="44.830787550303775" lon="4.809144269223633"><ele>97.0</ele><time>2026-04-24T15:40:57Z</time></trkpt><trkpt lat="44.83086353891237" lon="4.809078935793725"><ele>97.00000000000001</ele><time>2026-04-24T15:40:59Z</time></trkpt><trkpt lat="44.83094603923603" lon="4.8090263597704554"><ele>97.0</ele><time>2026-04-24T15:41:01Z</time></trkpt><trkpt lat="44.8310376601738" lon="4.809017269309645"><ele>97.0</ele><time>2026-04-24T15:41:03Z</time></trkpt><trkpt lat="44.8311268962554" lon="4.808970372788887"><ele>97.0</ele><time>2026-04-24T15:41:05Z</time></trkpt><trkpt lat="44.8312013989942" lon="4.808875211625241"><ele>97.0</ele><time>2026-04-24T15:41:07Z</time></trkpt><trkpt lat="44.83127927583705" lon="4.808789277916007"><ele>97.0</ele><time>2026-04-24T15:41:09Z</time></trkpt><trkpt lat="44.831357288312" lon="4.808699113895341"><ele>97.0</ele><time>2026-04-24T15:41:11Z</time></trkpt><trkpt lat="44.831446369809754" lon="4.808601124253069"><ele>97.00000000000001</ele><time>2026-04-24T15:41:13Z</time></trkpt><trkpt lat="44.831539434778946" lon="4.808516934461259"><ele>97.0</ele><time>2026-04-24T15:41:15Z</time></trkpt><trkpt lat="44.831620493061045" lon="4.808445202282028"><ele>97.0</ele><time>2026-04-24T15:41:17Z</time></trkpt><trkpt lat="44.83167079227163" lon="4.808385201852391"><ele>97.0</ele><time>2026-04-24T15:41:19Z</time></trkpt><trkpt lat="44.83172049473527" lon="4.808319707538242"><ele>97.00000000000001</ele><time>2026-04-24T15:41:21Z</time></trkpt><trkpt lat="44.831686198809415" lon="4.8081939100799715"><ele>97.0</ele><time>2026-04-24T15:41:24Z</time></trkpt><trkpt lat="44.83163644220296" lon="4.808101885523385"><ele>97.33333333333334</ele><time>2026-04-24T15:41:26Z</time></trkpt><trkpt lat="44.83158685384719" lon="4.808008951478273"><ele>97.66666666666667</ele><time>2026-04-24T15:41:28Z</time></trkpt><trkpt lat="44.831524932208325" lon="4.807909954047998"><ele>98.0</ele><time>2026-04-24T15:41:30Z</time></trkpt><trkpt lat="44.8314600896426" lon="4.807838226711195"><ele>98.33333333333334</ele><time>2026-04-24T15:41:32Z</time></trkpt><trkpt lat="44.83139691133148" lon="4.8077593694291"><ele>98.66666666666667</ele><time>2026-04-24T15:41:34Z</time></trkpt><trkpt lat="44.83132254431399" lon="4.80768013743938"><ele>99.0</ele><time>2026-04-24T15:41:36Z</time></trkpt><trkpt lat="44.831241584296734" lon="4.807604691084863"><ele>98.80000000000001</ele><time>2026-04-24T15:41:38Z</time></trkpt><trkpt lat="44.83116480062623" lon="4.807534398786552"><ele>98.60000000000001</ele><time>2026-04-24T15:41:40Z</time></trkpt><trkpt lat="44.831089689140626" lon="4.8074646988638055"><ele>98.4</ele><time>2026-04-24T15:41:42Z</time></trkpt><trkpt lat="44.83101143626129" lon="4.807405115444916"><ele>98.2</ele><time>2026-04-24T15:41:44Z</time></trkpt><trkpt lat="44.83092917245492" lon="4.807330588857115"><ele>98.0</ele><time>2026-04-24T15:41:46Z</time></trkpt><trkpt lat="44.83085080841324" lon="4.807263603365308"><ele>98.0</ele><time>2026-04-24T15:41:48Z</time></trkpt><trkpt lat="44.83075757098624" lon="4.807185855504387"><ele>98.0</ele><time>2026-04-24T15:41:50Z</time></trkpt><trkpt lat="44.83067837043397" lon="4.807116425917582"><ele>98.0</ele><time>2026-04-24T15:41:52Z</time></trkpt><trkpt lat="44.83060786692694" lon="4.807048180667925"><ele>98.0</ele><time>2026-04-24T15:41:54Z</time></trkpt><trkpt lat="44.830559223417104" lon="4.80695723679465"><ele>98.0</ele><time>2026-04-24T15:41:56Z</time></trkpt><trkpt lat="44.83048407289597" lon="4.8068575624798004"><ele>98.60000000000001</ele><time>2026-04-24T15:41:58Z</time></trkpt><trkpt lat="44.83040239731602" lon="4.806783244302468"><ele>99.2</ele><time>2026-04-24T15:42:00Z</time></trkpt><trkpt lat="44.83032383390809" lon="4.806707400395185"><ele>99.8</ele><time>2026-04-24T15:42:02Z</time></trkpt><trkpt lat="44.83023063381428" lon="4.806637249146748"><ele>100.4</ele><time>2026-04-24T15:42:04Z</time></trkpt><trkpt lat="44.83014278491286" lon="4.806552781931035"><ele>101.0</ele><time>2026-04-24T15:42:06Z</time></trkpt><trkpt lat="44.830043646842235" lon="4.806474981597442"><ele>101.0</ele><time>2026-04-24T15:42:08Z</time></trkpt><trkpt lat="44.82994668895493" lon="4.806380639483141"><ele>101.0</ele><time>2026-04-24T15:42:10Z</time></trkpt><trkpt lat="44.829849356478945" lon="4.806311524060416"><ele>101.0</ele><time>2026-04-24T15:42:12Z</time></trkpt><trkpt lat="44.829757909966546" lon="4.806228035277982"><ele>101.0</ele><time>2026-04-24T15:42:14Z</time></trkpt><trkpt lat="44.82966464448311" lon="4.80615155380114"><ele>101.0</ele><time>2026-04-24T15:42:16Z</time></trkpt><trkpt lat="44.829577340865484" lon="4.806073645221773"><ele>101.0</ele><time>2026-04-24T15:42:18Z</time></trkpt><trkpt lat="44.829471087009026" lon="4.806009560208372"><ele>101.0</ele><time>2026-04-24T15:42:20Z</time></trkpt><trkpt lat="44.82936389416397" lon="4.805951568693807"><ele>101.0</ele><time>2026-04-24T15:42:22Z</time></trkpt><trkpt lat="44.82926307627283" lon="4.805878192212366"><ele>101.0</ele><time>2026-04-24T15:42:24Z</time></trkpt><trkpt lat="44.82916394447166" lon="4.805797730629046"><ele>102.19999999999999</ele><time>2026-04-24T15:42:26Z</time></trkpt><trkpt lat="44.82906505705584" lon="4.805726902369485"><ele>103.39999999999999</ele><time>2026-04-24T15:42:28Z</time></trkpt><trkpt lat="44.82896654774881" lon="4.805664684010804"><ele>104.6</ele><time>2026-04-24T15:42:30Z</time></trkpt><trkpt lat="44.8288663456513" lon="4.8055962532181535"><ele>105.8</ele><time>2026-04-24T15:42:32Z</time></trkpt><trkpt lat="44.82876865037568" lon="4.805531384009819"><ele>107.0</ele><time>2026-04-24T15:42:34Z</time></trkpt><trkpt lat="44.82867376127186" lon="4.805442984196336"><ele>106.99999999999999</ele><time>2026-04-24T15:42:36Z</time></trkpt><trkpt lat="44.82860421813681" lon="4.805377128782105"><ele>107.0</ele><time>2026-04-24T15:42:38Z</time></trkpt><trkpt lat="44.828530702190115" lon="4.805322609076691"><ele>107.0</ele><time>2026-04-24T15:42:40Z</time></trkpt><trkpt lat="44.82847384690137" lon="4.8052582308067"><ele>107.0</ele><time>2026-04-24T15:42:42Z</time></trkpt><trkpt lat="44.82840551028208" lon="4.805213202443757"><ele>106.99999999999999</ele><time>2026-04-24T15:42:44Z</time></trkpt><trkpt lat="44.82833003532355" lon="4.805187918568957"><ele>107.0</ele><time>2026-04-24T15:42:46Z</time></trkpt><trkpt lat="44.82824485031277" lon="4.80513844105767"><ele>107.66666666666666</ele><time>2026-04-24T15:42:48Z</time></trkpt><trkpt lat="44.82817839561397" lon="4.805083961962933"><ele>108.33333333333333</ele><time>2026-04-24T15:42:50Z</time></trkpt><trkpt lat="44.828093263350674" lon="4.805028085114111"><ele>109.0</ele><time>2026-04-24T15:42:52Z</time></trkpt><trkpt lat="44.828022982168534" lon="4.804958125666608"><ele>109.66666666666666</ele><time>2026-04-24T15:42:54Z</time></trkpt><trkpt lat="44.82794879777971" lon="4.804903171401307"><ele>110.33333333333333</ele><time>2026-04-24T15:42:56Z</time></trkpt><trkpt lat="44.827863538181354" lon="4.804845230892494"><ele>111.0</ele><time>2026-04-24T15:42:58Z</time></trkpt><trkpt lat="44.827776556993605" lon="4.804771362730975"><ele>111.0</ele><time>2026-04-24T15:43:00Z</time></trkpt><trkpt lat="44.82769220220592" lon="4.804702443121827"><ele>111.0</ele><time>2026-04-24T15:43:02Z</time></trkpt><trkpt lat="44.82760087369698" lon="4.804623322619805"><ele>111.0</ele><time>2026-04-24T15:43:04Z</time></trkpt><trkpt lat="44.82752597480141" lon="4.804550625908682"><ele>111.0</ele><time>2026-04-24T15:43:06Z</time></trkpt><trkpt lat="44.827444596061135" lon="4.804462845752817"><ele>111.0</ele><time>2026-04-24T15:43:08Z</time></trkpt><trkpt lat="44.82737960579227" lon="4.8043931463675245"><ele>110.8</ele><time>2026-04-24T15:43:10Z</time></trkpt><trkpt lat="44.82729839136372" lon="4.804311768315886"><ele>110.6</ele><time>2026-04-24T15:43:12Z</time></trkpt><trkpt lat="44.82721277159225" lon="4.804208586167667"><ele>110.4</ele><time>2026-04-24T15:43:14Z</time></trkpt><trkpt lat="44.82713426092805" lon="4.804112311479474"><ele>110.2</ele><time>2026-04-24T15:43:16Z</time></trkpt><trkpt lat="44.827060027821666" lon="4.804010980375965"><ele>110.0</ele><time>2026-04-24T15:43:18Z</time></trkpt><trkpt lat="44.82698857062534" lon="4.8039136166529035"><ele>110.0</ele><time>2026-04-24T15:43:20Z</time></trkpt><trkpt lat="44.826909557367856" lon="4.803810135679483"><ele>110.0</ele><time>2026-04-24T15:43:22Z</time></trkpt><trkpt lat="44.82683853332208" lon="4.803710114489611"><ele>110.0</ele><time>2026-04-24T15:43:24Z</time></trkpt><trkpt lat="44.82676254606845" lon="4.803607701485246"><ele>110.0</ele><time>2026-04-24T15:43:26Z</time></trkpt><trkpt lat="44.82670528322394" lon="4.8035027783974025"><ele>110.0</ele><time>2026-04-24T15:43:28Z</time></trkpt><trkpt lat="44.82663418667934" lon="4.803411727382644"><ele>108.8</ele><time>2026-04-24T15:43:30Z</time></trkpt><trkpt lat="44.826565880731785" lon="4.8033178630903075"><ele>107.6</ele><time>2026-04-24T15:43:32Z</time></trkpt><trkpt lat="44.82650584217879" lon="4.803214537792714"><ele>106.4</ele><time>2026-04-24T15:43:34Z</time></trkpt><trkpt lat="44.82645267591668" lon="4.80311163579023"><ele>105.2</ele><time>2026-04-24T15:43:35.999Z</time></trkpt><trkpt lat="44.82640643852548" lon="4.803005350739336"><ele>104.0</ele><time>2026-04-24T15:43:37.999Z</time></trkpt><trkpt lat="44.826351113834605" lon="4.802918078247537"><ele>103.99999999999999</ele><time>2026-04-24T15:43:39.999Z</time></trkpt><trkpt lat="44.82629374955539" lon="4.802841456663599"><ele>104.0</ele><time>2026-04-24T15:43:41.999Z</time></trkpt><trkpt lat="44.826229337609966" lon="4.802821723791458"><ele>104.0</ele><time>2026-04-24T15:43:43.999Z</time></trkpt><trkpt lat="44.82615529985721" lon="4.8027761389648065"><ele>104.0</ele><time>2026-04-24T15:43:45.999Z</time></trkpt><trkpt lat="44.82605146239768" lon="4.8027900778271135"><ele>103.99999999999999</ele><time>2026-04-24T15:43:47.999Z</time></trkpt><trkpt lat="44.82596259192863" lon="4.802871091485574"><ele>104.0</ele><time>2026-04-24T15:43:49.999Z</time></trkpt><trkpt lat="44.82591715488603" lon="4.802934714985066"><ele>103.0</ele><time>2026-04-24T15:43:50.999Z</time></trkpt><trkpt lat="44.82582135171795" lon="4.803056737768623"><ele>102.0</ele><time>2026-04-24T15:43:52.999Z</time></trkpt><trkpt lat="44.82569602934846" lon="4.803058864366269"><ele>101.0</ele><time>2026-04-24T15:43:54.999Z</time></trkpt><trkpt lat="44.82563885887366" lon="4.8030010297390895"><ele>100.0</ele><time>2026-04-24T15:43:55.999Z</time></trkpt><trkpt lat="44.825605986188094" lon="4.802913882848747"><ele>99.0</ele><time>2026-04-24T15:43:56.999Z</time></trkpt><trkpt lat="44.82554523463001" lon="4.802772737122273"><ele>98.80000000000001</ele><time>2026-04-24T15:43:58.999Z</time></trkpt><trkpt lat="44.82548789975649" lon="4.802641640357582"><ele>98.60000000000001</ele><time>2026-04-24T15:44:00.999Z</time></trkpt><trkpt lat="44.82543992249688" lon="4.8025307272531395"><ele>98.4</ele><time>2026-04-24T15:44:02.999Z</time></trkpt><trkpt lat="44.825399893605464" lon="4.8023933283656515"><ele>98.2</ele><time>2026-04-24T15:44:04.999Z</time></trkpt><trkpt lat="44.82535298560873" lon="4.802291958231146"><ele>98.0</ele><time>2026-04-24T15:44:06.999Z</time></trkpt><trkpt lat="44.825275040637635" lon="4.802194128578956"><ele>98.0</ele><time>2026-04-24T15:44:08.999Z</time></trkpt><trkpt lat="44.82520187065915" lon="4.802092295038889"><ele>98.0</ele><time>2026-04-24T15:44:10.999Z</time></trkpt><trkpt lat="44.825135044796994" lon="4.801996571177836"><ele>98.0</ele><time>2026-04-24T15:44:12.999Z</time></trkpt><trkpt lat="44.825063632831515" lon="4.801906816182652"><ele>98.0</ele><time>2026-04-24T15:44:14.999Z</time></trkpt><trkpt lat="44.82498989447595" lon="4.801821131280215"><ele>98.0</ele><time>2026-04-24T15:44:16.999Z</time></trkpt><trkpt lat="44.82491052290148" lon="4.801738824286446"><ele>97.80000000000001</ele><time>2026-04-24T15:44:18.999Z</time></trkpt><trkpt lat="44.82482765454123" lon="4.801654531317895"><ele>97.6</ele><time>2026-04-24T15:44:20.999Z</time></trkpt><trkpt lat="44.824748401789776" lon="4.801572927857919"><ele>97.4</ele><time>2026-04-24T15:44:22.999Z</time></trkpt><trkpt lat="44.82467028793274" lon="4.801479517890769"><ele>97.19999999999999</ele><time>2026-04-24T15:44:24.999Z</time></trkpt><trkpt lat="44.824587036211184" lon="4.8013980038499104"><ele>97.0</ele><time>2026-04-24T15:44:26.999Z</time></trkpt><trkpt lat="44.824507363537634" lon="4.801311535781966"><ele>97.0</ele><time>2026-04-24T15:44:28.999Z</time></trkpt><trkpt lat="44.82442304909228" lon="4.80121901278655"><ele>97.0</ele><time>2026-04-24T15:44:30.999Z</time></trkpt><trkpt lat="44.82433336776894" lon="4.801129927537922"><ele>97.0</ele><time>2026-04-24T15:44:32.999Z</time></trkpt><trkpt lat="44.82425030114155" lon="4.801037413082051"><ele>97.0</ele><time>2026-04-24T15:44:34.999Z</time></trkpt><trkpt lat="44.82416677139265" lon="4.800956730641365"><ele>97.0</ele><time>2026-04-24T15:44:36.999Z</time></trkpt><trkpt lat="44.82407851868545" lon="4.800885290775782"><ele>97.19999999999999</ele><time>2026-04-24T15:44:38.999Z</time></trkpt><trkpt lat="44.82398690346391" lon="4.800830203443387"><ele>97.4</ele><time>2026-04-24T15:44:40.999Z</time></trkpt><trkpt lat="44.823891704202396" lon="4.800808524515904"><ele>97.6</ele><time>2026-04-24T15:44:42.999Z</time></trkpt><trkpt lat="44.82380547531312" lon="4.800827046411583"><ele>97.80000000000001</ele><time>2026-04-24T15:44:44.999Z</time></trkpt><trkpt lat="44.82371683129523" lon="4.80083681156835"><ele>98.0</ele><time>2026-04-24T15:44:46.999Z</time></trkpt><trkpt lat="44.82362073419978" lon="4.800855193943326"><ele>97.99999999999999</ele><time>2026-04-24T15:44:48.999Z</time></trkpt><trkpt lat="44.823525297658655" lon="4.800888419925401"><ele>98.0</ele><time>2026-04-24T15:44:50.999Z</time></trkpt><trkpt lat="44.82344133469079" lon="4.800917003251705"><ele>98.0</ele><time>2026-04-24T15:44:52.999Z</time></trkpt><trkpt lat="44.823398996329644" lon="4.800843424020903"><ele>98.0</ele><time>2026-04-24T15:44:56.999Z</time></trkpt><trkpt lat="44.82349569557737" lon="4.800837187212177"><ele>97.99999999999999</ele><time>2026-04-24T15:44:59.999Z</time></trkpt><trkpt lat="44.82356876449516" lon="4.800808454329009"><ele>98.0</ele><time>2026-04-24T15:45:01.999Z</time></trkpt><trkpt lat="44.82365019980001" lon="4.800768368562961"><ele>98.0</ele><time>2026-04-24T15:45:03.999Z</time></trkpt><trkpt lat="44.82372988323408" lon="4.800716886959421"><ele>98.0</ele><time>2026-04-24T15:45:05.999Z</time></trkpt><trkpt lat="44.823809720637186" lon="4.800660878179858"><ele>98.0</ele><time>2026-04-24T15:45:07.999Z</time></trkpt><trkpt lat="44.82389828158811" lon="4.800592130093189"><ele>98.0</ele><time>2026-04-24T15:45:09.999Z</time></trkpt><trkpt lat="44.82399333729264" lon="4.800514392765474"><ele>98.0</ele><time>2026-04-24T15:45:11.999Z</time></trkpt><trkpt lat="44.82408341972275" lon="4.800449793954101"><ele>98.0</ele><time>2026-04-24T15:45:13.999Z</time></trkpt><trkpt lat="44.824169781069784" lon="4.800374275740587"><ele>98.0</ele><time>2026-04-24T15:45:15.999Z</time></trkpt><trkpt lat="44.82426510737623" lon="4.800314947320587"><ele>98.0</ele><time>2026-04-24T15:45:17.999Z</time></trkpt><trkpt lat="44.824357910254754" lon="4.800253134457919"><ele>98.0</ele><time>2026-04-24T15:45:19.999Z</time></trkpt><trkpt lat="44.82442902006526" lon="4.800190581959686"><ele>98.0</ele><time>2026-04-24T15:45:21.999Z</time></trkpt><trkpt lat="44.82451114509882" lon="4.800122521469244"><ele>97.66666666666666</ele><time>2026-04-24T15:45:23.999Z</time></trkpt><trkpt lat="44.82459060254775" lon="4.800048404055411"><ele>97.33333333333333</ele><time>2026-04-24T15:45:25.999Z</time></trkpt><trkpt lat="44.824672170888086" lon="4.799995990778059"><ele>97.0</ele><time>2026-04-24T15:45:27.999Z</time></trkpt><trkpt lat="44.824739022562" lon="4.799973347450271"><ele>96.66666666666666</ele><time>2026-04-24T15:45:29.999Z</time></trkpt><trkpt lat="44.82478011972376" lon="4.799888959280134"><ele>96.33333333333333</ele><time>2026-04-24T15:45:34.999Z</time></trkpt><trkpt lat="44.824737775804046" lon="4.7997995560000914"><ele>96.0</ele><time>2026-04-24T15:45:36.999Z</time></trkpt><trkpt lat="44.824698912299695" lon="4.799712806323115"><ele>96.0</ele><time>2026-04-24T15:45:38.999Z</time></trkpt><trkpt lat="44.82465665372743" lon="4.799629401024522"><ele>96.0</ele><time>2026-04-24T15:45:40.999Z</time></trkpt><trkpt lat="44.82460700017031" lon="4.799522590481077"><ele>96.0</ele><time>2026-04-24T15:45:42.999Z</time></trkpt><trkpt lat="44.82456052754105" lon="4.799427541210102"><ele>96.0</ele><time>2026-04-24T15:45:44.999Z</time></trkpt><trkpt lat="44.82450106447025" lon="4.799313000531627"><ele>96.0</ele><time>2026-04-24T15:45:46.999Z</time></trkpt><trkpt lat="44.82444855805025" lon="4.799204260229938"><ele>96.0</ele><time>2026-04-24T15:45:48.999Z</time></trkpt><trkpt lat="44.824392358002676" lon="4.799094070232396"><ele>95.8</ele><time>2026-04-24T15:45:50.999Z</time></trkpt><trkpt lat="44.82434082320422" lon="4.7989869350837076"><ele>95.6</ele><time>2026-04-24T15:45:52.999Z</time></trkpt><trkpt lat="44.824288904340236" lon="4.79887743804377"><ele>95.4</ele><time>2026-04-24T15:45:54.999Z</time></trkpt><trkpt lat="44.82422669761663" lon="4.798761143249556"><ele>95.2</ele><time>2026-04-24T15:45:56.999Z</time></trkpt><trkpt lat="44.824170190581576" lon="4.798645335323625"><ele>95.0</ele><time>2026-04-24T15:45:58.999Z</time></trkpt><trkpt lat="44.82411419811505" lon="4.798533122293433"><ele>95.6</ele><time>2026-04-24T15:46:00.999Z</time></trkpt><trkpt lat="44.82405455310767" lon="4.79843024581196"><ele>96.2</ele><time>2026-04-24T15:46:02.999Z</time></trkpt><trkpt lat="44.82399693493562" lon="4.798308860946817"><ele>96.80000000000001</ele><time>2026-04-24T15:46:04.999Z</time></trkpt><trkpt lat="44.82394792690583" lon="4.798203375238465"><ele>97.4</ele><time>2026-04-24T15:46:06.999Z</time></trkpt><trkpt lat="44.82390039524627" lon="4.798118423410118"><ele>98.0</ele><time>2026-04-24T15:46:08.999Z</time></trkpt><trkpt lat="44.82380173837047" lon="4.798130367098745"><ele>98.0</ele><time>2026-04-24T15:46:11.999Z</time></trkpt><trkpt lat="44.823765475153294" lon="4.798236779394125"><ele>98.0</ele><time>2026-04-24T15:46:13.999Z</time></trkpt><trkpt lat="44.82372744730841" lon="4.79833199918388"><ele>98.0</ele><time>2026-04-24T15:46:15.999Z</time></trkpt><trkpt lat="44.82367731860605" lon="4.7984496127864045"><ele>98.0</ele><time>2026-04-24T15:46:17.999Z</time></trkpt><trkpt lat="44.82362581865177" lon="4.798567922442145"><ele>98.0</ele><time>2026-04-24T15:46:19.999Z</time></trkpt><trkpt lat="44.823546432283095" lon="4.798692148489119"><ele>97.83333333333333</ele><time>2026-04-24T15:46:21.999Z</time></trkpt><trkpt lat="44.8235063847358" lon="4.798773004520624"><ele>97.66666666666666</ele><time>2026-04-24T15:46:22.999Z</time></trkpt><trkpt lat="44.82346386627412" lon="4.798874372837096"><ele>97.5</ele><time>2026-04-24T15:46:23.999Z</time></trkpt><trkpt lat="44.823415155282966" lon="4.7989887941410405"><ele>97.33333333333334</ele><time>2026-04-24T15:46:24.999Z</time></trkpt><trkpt lat="44.82335043839173" lon="4.79908931797062"><ele>97.16666666666667</ele><time>2026-04-24T15:46:25.999Z</time></trkpt><trkpt lat="44.82328555512625" lon="4.799177280534873"><ele>97.0</ele><time>2026-04-24T15:46:26.999Z</time></trkpt><trkpt lat="44.82322030807144" lon="4.799262890526143"><ele>97.0</ele><time>2026-04-24T15:46:27.999Z</time></trkpt><trkpt lat="44.82315725530196" lon="4.799312950057656"><ele>97.0</ele><time>2026-04-24T15:46:28.999Z</time></trkpt><trkpt lat="44.82310126237758" lon="4.799372150194248"><ele>97.0</ele><time>2026-04-24T15:46:29.999Z</time></trkpt><trkpt lat="44.823035787093936" lon="4.7994362221265074"><ele>97.0</ele><time>2026-04-24T15:46:30.999Z</time></trkpt><trkpt lat="44.82297581098915" lon="4.799495258619557"><ele>97.0</ele><time>2026-04-24T15:46:31.999Z</time></trkpt><trkpt lat="44.822923209797885" lon="4.7995572746725665"><ele>97.0</ele><time>2026-04-24T15:46:32.999Z</time></trkpt><trkpt lat="44.82286436128322" lon="4.7996021476039905"><ele>97.0</ele><time>2026-04-24T15:46:33.999Z</time></trkpt><trkpt lat="44.822797098633075" lon="4.799625394860836"><ele>97.19999999999999</ele><time>2026-04-24T15:46:34.999Z</time></trkpt><trkpt lat="44.82267174876782" lon="4.79965813583748"><ele>97.4</ele><time>2026-04-24T15:46:36.999Z</time></trkpt><trkpt lat="44.82261087831616" lon="4.7996814946183335"><ele>97.6</ele><time>2026-04-24T15:46:37.999Z</time></trkpt><trkpt lat="44.82250895538852" lon="4.7997455770574655"><ele>97.80000000000001</ele><time>2026-04-24T15:46:39.999Z</time></trkpt><trkpt lat="44.82240462092559" lon="4.799802061619872"><ele>98.0</ele><time>2026-04-24T15:46:41.999Z</time></trkpt><trkpt lat="44.82229793355846" lon="4.799858220520199"><ele>98.0</ele><time>2026-04-24T15:46:43.999Z</time></trkpt><trkpt lat="44.82219853683176" lon="4.799931250548535"><ele>98.0</ele><time>2026-04-24T15:46:45.999Z</time></trkpt><trkpt lat="44.822106372879766" lon="4.800022273370206"><ele>98.0</ele><time>2026-04-24T15:46:47.999Z</time></trkpt><trkpt lat="44.82203399739422" lon="4.800150501754518"><ele>98.0</ele><time>2026-04-24T15:46:49.999Z</time></trkpt><trkpt lat="44.8219754946196" lon="4.8002910635055525"><ele>97.80000000000001</ele><time>2026-04-24T15:46:51.999Z</time></trkpt><trkpt lat="44.82191089818102" lon="4.800430733189667"><ele>97.6</ele><time>2026-04-24T15:46:53.999Z</time></trkpt><trkpt lat="44.821828225333036" lon="4.800557999255311"><ele>97.4</ele><time>2026-04-24T15:46:55.999Z</time></trkpt><trkpt lat="44.82172457922262" lon="4.800617883470703"><ele>97.19999999999999</ele><time>2026-04-24T15:46:57.999Z</time></trkpt><trkpt lat="44.821665569363056" lon="4.800648976631018"><ele>97.0</ele><time>2026-04-24T15:46:58.999Z</time></trkpt><trkpt lat="44.82161135939268" lon="4.800698194888282"><ele>96.50000000000001</ele><time>2026-04-24T15:46:59.999Z</time></trkpt><trkpt lat="44.82155116598454" lon="4.800743234554134"><ele>96.0</ele><time>2026-04-24T15:47:00.999Z</time></trkpt><trkpt lat="44.821488535185466" lon="4.8007687406927"><ele>95.5</ele><time>2026-04-24T15:47:01.999Z</time></trkpt><trkpt lat="44.8214248340668" lon="4.800789527895673"><ele>95.0</ele><time>2026-04-24T15:47:02.999Z</time></trkpt><trkpt lat="44.82131135625668" lon="4.800842837674733"><ele>94.5</ele><time>2026-04-24T15:47:04.999Z</time></trkpt><trkpt lat="44.82125220935493" lon="4.800875780264989"><ele>94.0</ele><time>2026-04-24T15:47:05.999Z</time></trkpt><trkpt lat="44.82113799110626" lon="4.800930787090426"><ele>94.0</ele><time>2026-04-24T15:47:07.999Z</time></trkpt><trkpt lat="44.821068551154724" lon="4.800943154035531"><ele>94.0</ele><time>2026-04-24T15:47:08.999Z</time></trkpt><trkpt lat="44.82100448954447" lon="4.800962224317257"><ele>94.0</ele><time>2026-04-24T15:47:09.999Z</time></trkpt><trkpt lat="44.82093917672114" lon="4.800978047740251"><ele>94.0</ele><time>2026-04-24T15:47:10.999Z</time></trkpt><trkpt lat="44.82087175639547" lon="4.800993641966258"><ele>94.0</ele><time>2026-04-24T15:47:11.999Z</time></trkpt><trkpt lat="44.82080566235062" lon="4.801000507056086"><ele>94.0</ele><time>2026-04-24T15:47:12.999Z</time></trkpt><trkpt lat="44.82074167351377" lon="4.801011980504182"><ele>94.0</ele><time>2026-04-24T15:47:13.999Z</time></trkpt><trkpt lat="44.8206790805973" lon="4.801027513016963"><ele>93.66666666666666</ele><time>2026-04-24T15:47:14.999Z</time></trkpt><trkpt lat="44.820613884677684" lon="4.801040717616291"><ele>93.33333333333333</ele><time>2026-04-24T15:47:15.999Z</time></trkpt><trkpt lat="44.82055070922429" lon="4.8010495315898885"><ele>93.0</ele><time>2026-04-24T15:47:16.999Z</time></trkpt><trkpt lat="44.82048488912514" lon="4.801055999741922"><ele>92.66666666666667</ele><time>2026-04-24T15:47:17.999Z</time></trkpt><trkpt lat="44.82041918584673" lon="4.801068036484802"><ele>92.33333333333334</ele><time>2026-04-24T15:47:18.999Z</time></trkpt><trkpt lat="44.820292543027875" lon="4.801090132777584"><ele>92.0</ele><time>2026-04-24T15:47:20.999Z</time></trkpt><trkpt lat="44.82016791259142" lon="4.801105077224126"><ele>92.6</ele><time>2026-04-24T15:47:22.999Z</time></trkpt><trkpt lat="44.820048442219395" lon="4.801127583831206"><ele>93.19999999999999</ele><time>2026-04-24T15:47:24.999Z</time></trkpt><trkpt lat="44.8199297009726" lon="4.801140215026137"><ele>93.8</ele><time>2026-04-24T15:47:26.999Z</time></trkpt><trkpt lat="44.81980988433019" lon="4.8011379999564845"><ele>94.4</ele><time>2026-04-24T15:47:28.999Z</time></trkpt><trkpt lat="44.819747268534435" lon="4.801147502597403"><ele>95.0</ele><time>2026-04-24T15:47:29.999Z</time></trkpt><trkpt lat="44.819684622245546" lon="4.801156317054154"><ele>95.0</ele><time>2026-04-24T15:47:30.999Z</time></trkpt><trkpt lat="44.81956845152603" lon="4.801168861719171"><ele>95.0</ele><time>2026-04-24T15:47:32.999Z</time></trkpt><trkpt lat="44.81950410561937" lon="4.801172826228594"><ele>95.0</ele><time>2026-04-24T15:47:33.999Z</time></trkpt><trkpt lat="44.819396507881606" lon="4.801194597427257"><ele>95.0</ele><time>2026-04-24T15:47:35.999Z</time></trkpt><trkpt lat="44.81928087012392" lon="4.801217111920533"><ele>95.0</ele><time>2026-04-24T15:47:37.999Z</time></trkpt><trkpt lat="44.819168056002994" lon="4.801238310809502"><ele>95.2</ele><time>2026-04-24T15:47:39.999Z</time></trkpt><trkpt lat="44.81905921101606" lon="4.801257413191161"><ele>95.4</ele><time>2026-04-24T15:47:41.999Z</time></trkpt><trkpt lat="44.81893763812997" lon="4.80127670432863"><ele>95.6</ele><time>2026-04-24T15:47:43.999Z</time></trkpt><trkpt lat="44.81883238500772" lon="4.801297139548742"><ele>95.8</ele><time>2026-04-24T15:47:45.999Z</time></trkpt><trkpt lat="44.81872144529442" lon="4.801303427543081"><ele>96.0</ele><time>2026-04-24T15:47:47.999Z</time></trkpt><trkpt lat="44.81861221448092" lon="4.801326212445247"><ele>96.0</ele><time>2026-04-24T15:47:49.999Z</time></trkpt><trkpt lat="44.81849621550869" lon="4.801338148772263"><ele>96.0</ele><time>2026-04-24T15:47:51.999Z</time></trkpt><trkpt lat="44.81838239154623" lon="4.801351274803431"><ele>96.0</ele><time>2026-04-24T15:47:53.999Z</time></trkpt><trkpt lat="44.81826927988197" lon="4.801363661156903"><ele>96.0</ele><time>2026-04-24T15:47:55.999Z</time></trkpt><trkpt lat="44.81815777818741" lon="4.8013853212168724"><ele>95.8</ele><time>2026-04-24T15:47:57.999Z</time></trkpt><trkpt lat="44.81805206241389" lon="4.801405583043816"><ele>95.6</ele><time>2026-04-24T15:47:59.999Z</time></trkpt><trkpt lat="44.817941218997426" lon="4.801414871715935"><ele>95.4</ele><time>2026-04-24T15:48:01.999Z</time></trkpt><trkpt lat="44.8178273059159" lon="4.801427044137755"><ele>95.2</ele><time>2026-04-24T15:48:03.999Z</time></trkpt><trkpt lat="44.81772575958152" lon="4.801438312215096"><ele>95.0</ele><time>2026-04-24T15:48:05.999Z</time></trkpt><trkpt lat="44.81761020099874" lon="4.8014574490227835"><ele>95.0</ele><time>2026-04-24T15:48:07.999Z</time></trkpt><trkpt lat="44.81750112102939" lon="4.801473170969537"><ele>95.0</ele><time>2026-04-24T15:48:09.999Z</time></trkpt><trkpt lat="44.81743813953428" lon="4.801472517575868"><ele>95.0</ele><time>2026-04-24T15:48:10.999Z</time></trkpt><trkpt lat="44.81733103359163" lon="4.801488527838608"><ele>95.0</ele><time>2026-04-24T15:48:12.999Z</time></trkpt><trkpt lat="44.817208796713466" lon="4.801497962789525"><ele>95.0</ele><time>2026-04-24T15:48:14.999Z</time></trkpt><trkpt lat="44.81709368361643" lon="4.801501949664702"><ele>95.0</ele><time>2026-04-24T15:48:16.999Z</time></trkpt><trkpt lat="44.81698252027924" lon="4.801504259650793"><ele>95.0</ele><time>2026-04-24T15:48:18.999Z</time></trkpt><trkpt lat="44.81687381900044" lon="4.801490093973721"><ele>95.0</ele><time>2026-04-24T15:48:20.999Z</time></trkpt><trkpt lat="44.81680941273765" lon="4.801459300595351"><ele>95.0</ele><time>2026-04-24T15:48:21.999Z</time></trkpt><trkpt lat="44.81671787129654" lon="4.801374182449536"><ele>95.0</ele><time>2026-04-24T15:48:23.999Z</time></trkpt><trkpt lat="44.816633186768435" lon="4.801263105251165"><ele>94.83333333333334</ele><time>2026-04-24T15:48:25.999Z</time></trkpt><trkpt lat="44.81658143369203" lon="4.801201579487796"><ele>94.66666666666667</ele><time>2026-04-24T15:48:26.999Z</time></trkpt><trkpt lat="44.81653298737177" lon="4.801144434631907"><ele>94.5</ele><time>2026-04-24T15:48:27.999Z</time></trkpt><trkpt lat="44.81645174058554" lon="4.80101254745071"><ele>94.33333333333333</ele><time>2026-04-24T15:48:29.999Z</time></trkpt><trkpt lat="44.81640972403993" lon="4.800943053773514"><ele>94.16666666666666</ele><time>2026-04-24T15:48:30.999Z</time></trkpt><trkpt lat="44.81633794920654" lon="4.800809819228225"><ele>94.0</ele><time>2026-04-24T15:48:32.999Z</time></trkpt><trkpt lat="44.816261400529534" lon="4.800679301259555"><ele>94.0</ele><time>2026-04-24T15:48:34.999Z</time></trkpt><trkpt lat="44.81618730586475" lon="4.800549509547495"><ele>94.0</ele><time>2026-04-24T15:48:36.999Z</time></trkpt><trkpt lat="44.81610984146794" lon="4.800416297239422"><ele>94.0</ele><time>2026-04-24T15:48:38.999Z</time></trkpt><trkpt lat="44.8160381858803" lon="4.800311723625872"><ele>94.0</ele><time>2026-04-24T15:48:40.999Z</time></trkpt><trkpt lat="44.815995669204874" lon="4.80022351070959"><ele>94.0</ele><time>2026-04-24T15:48:42.999Z</time></trkpt><trkpt lat="44.81595003439652" lon="4.800148436300254"><ele>94.0</ele><time>2026-04-24T15:48:45.999Z</time></trkpt><trkpt lat="44.815892960676635" lon="4.800106057475532"><ele>94.0</ele><time>2026-04-24T15:49:47.999Z</time></trkpt><trkpt lat="44.81584344328191" lon="4.800011421752936"><ele>94.0</ele><time>2026-04-24T15:49:50.999Z</time></trkpt><trkpt lat="44.81578182371478" lon="4.799916337908393"><ele>94.0</ele><time>2026-04-24T15:49:53.999Z</time></trkpt><trkpt lat="44.81572109709224" lon="4.7998115141806785"><ele>94.0</ele><time>2026-04-24T15:49:55.999Z</time></trkpt><trkpt lat="44.81566297734301" lon="4.7997123884259105"><ele>94.0</ele><time>2026-04-24T15:49:57.999Z</time></trkpt><trkpt lat="44.81558733030306" lon="4.799595577668524"><ele>94.0</ele><time>2026-04-24T15:49:59.999Z</time></trkpt><trkpt lat="44.815524815142076" lon="4.799463777201782"><ele>94.0</ele><time>2026-04-24T15:50:01.999Z</time></trkpt><trkpt lat="44.815511539068126" lon="4.7993221119212235"><ele>94.0</ele><time>2026-04-24T15:50:03.999Z</time></trkpt><trkpt lat="44.815586509391395" lon="4.799222119134509"><ele>94.0</ele><time>2026-04-24T15:50:05.999Z</time></trkpt><trkpt lat="44.8156486914098" lon="4.799170631796665"><ele>94.0</ele><time>2026-04-24T15:50:07.999Z</time></trkpt><trkpt lat="44.81570619603519" lon="4.7991311464263"><ele>94.0</ele><time>2026-04-24T15:50:09.999Z</time></trkpt><trkpt lat="44.81577152331224" lon="4.79905976488101"><ele>94.0</ele><time>2026-04-24T15:50:12.999Z</time></trkpt><trkpt lat="44.81571708131507" lon="4.799007910035065"><ele>94.0</ele><time>2026-04-24T15:50:15.999Z</time></trkpt><trkpt lat="44.81565018147069" lon="4.799023117288884"><ele>94.0</ele><time>2026-04-24T15:50:17.999Z</time></trkpt><trkpt lat="44.815565998010996" lon="4.7990188050292195"><ele>94.0</ele><time>2026-04-24T15:50:19.999Z</time></trkpt><trkpt lat="44.81547321326255" lon="4.799027861481382"><ele>94.0</ele><time>2026-04-24T15:50:21.999Z</time></trkpt><trkpt lat="44.81539632783145" lon="4.799032018460293"><ele>94.0</ele><time>2026-04-24T15:50:23.999Z</time></trkpt><trkpt lat="44.815315656649524" lon="4.799023502925239"><ele>94.0</ele><time>2026-04-24T15:50:25.999Z</time></trkpt><trkpt lat="44.81525265237384" lon="4.799020134347718"><ele>94.0</ele><time>2026-04-24T15:50:27.999Z</time></trkpt><trkpt lat="44.81518190941366" lon="4.799016238404137"><ele>94.0</ele><time>2026-04-24T15:50:29.999Z</time></trkpt><trkpt lat="44.8150822702528" lon="4.7990103962622745"><ele>94.0</ele><time>2026-04-24T15:50:31.999Z</time></trkpt><trkpt lat="44.81500228336172" lon="4.799001131532358"><ele>94.0</ele><time>2026-04-24T15:50:33.999Z</time></trkpt><trkpt lat="44.81489698143789" lon="4.798986485504264"><ele>95.0</ele><time>2026-04-24T15:50:35.999Z</time></trkpt><trkpt lat="44.81479941192594" lon="4.798942459265877"><ele>96.0</ele><time>2026-04-24T15:50:37.999Z</time></trkpt><trkpt lat="44.81470509611674" lon="4.798909898190389"><ele>97.0</ele><time>2026-04-24T15:50:39.999Z</time></trkpt><trkpt lat="44.814601818113914" lon="4.7988723046962"><ele>98.0</ele><time>2026-04-24T15:50:41.999Z</time></trkpt><trkpt lat="44.81450839091447" lon="4.798838997394899"><ele>99.0</ele><time>2026-04-24T15:50:43.999Z</time></trkpt><trkpt lat="44.81441453337313" lon="4.798807819846543"><ele>99.0</ele><time>2026-04-24T15:50:45.999Z</time></trkpt><trkpt lat="44.81432618567326" lon="4.7988037447890495"><ele>99.0</ele><time>2026-04-24T15:50:47.999Z</time></trkpt><trkpt lat="44.81422748358319" lon="4.79877745927812"><ele>99.0</ele><time>2026-04-24T15:50:49.999Z</time></trkpt><trkpt lat="44.81413155019128" lon="4.798745983530974"><ele>99.0</ele><time>2026-04-24T15:50:51.999Z</time></trkpt><trkpt lat="44.81403732123156" lon="4.798712655850565"><ele>99.0</ele><time>2026-04-24T15:50:53.999Z</time></trkpt><trkpt lat="44.81393129918075" lon="4.798693372162236"><ele>98.6</ele><time>2026-04-24T15:50:55.999Z</time></trkpt><trkpt lat="44.81383093037075" lon="4.7986469976348385"><ele>98.2</ele><time>2026-04-24T15:50:57.999Z</time></trkpt><trkpt lat="44.81371103197894" lon="4.798614828365948"><ele>97.8</ele><time>2026-04-24T15:50:59.999Z</time></trkpt><trkpt lat="44.81361135840144" lon="4.79859148076326"><ele>97.39999999999999</ele><time>2026-04-24T15:51:01.999Z</time></trkpt><trkpt lat="44.813520658127985" lon="4.798563500435437"><ele>97.0</ele><time>2026-04-24T15:51:03.999Z</time></trkpt><trkpt lat="44.813426428704695" lon="4.798506261204606"><ele>96.8</ele><time>2026-04-24T15:51:05.999Z</time></trkpt><trkpt lat="44.81334232111531" lon="4.798455091209479"><ele>96.6</ele><time>2026-04-24T15:51:07.999Z</time></trkpt><trkpt lat="44.81325857373374" lon="4.798387946459965"><ele>96.39999999999999</ele><time>2026-04-24T15:51:09.999Z</time></trkpt><trkpt lat="44.8131596841312" lon="4.798344465378798"><ele>96.19999999999999</ele><time>2026-04-24T15:51:11.999Z</time></trkpt><trkpt lat="44.813091071765506" lon="4.798236028983631"><ele>96.0</ele><time>2026-04-24T15:51:13.999Z</time></trkpt><trkpt lat="44.81304621289183" lon="4.798152027926171"><ele>96.0</ele><time>2026-04-24T15:51:15.999Z</time></trkpt><trkpt lat="44.812997283864874" lon="4.798086385362376"><ele>96.0</ele><time>2026-04-24T15:51:18.999Z</time></trkpt><trkpt lat="44.812932642676955" lon="4.798049866722505"><ele>96.0</ele><time>2026-04-24T15:51:21.999Z</time></trkpt><trkpt lat="44.81285677202168" lon="4.798022841827102"><ele>96.0</ele><time>2026-04-24T15:51:24.999Z</time></trkpt><trkpt lat="44.81277448785385" lon="4.798013986846466"><ele>96.0</ele><time>2026-04-24T15:51:27.999Z</time></trkpt><trkpt lat="44.81269145903102" lon="4.79796020346981"><ele>96.0</ele><time>2026-04-24T15:51:30.999Z</time></trkpt><trkpt lat="44.81263480159827" lon="4.797913454870376"><ele>95.85714285714285</ele><time>2026-04-24T15:51:33.999Z</time></trkpt><trkpt lat="44.812573213530825" lon="4.79788161000822"><ele>95.71428571428571</ele><time>2026-04-24T15:51:37.999Z</time></trkpt><trkpt lat="44.81251733718726" lon="4.7978323621472985"><ele>95.57142857142857</ele><time>2026-04-24T15:51:40.999Z</time></trkpt><trkpt lat="44.81245537358871" lon="4.797791471928404"><ele>95.42857142857142</ele><time>2026-04-24T15:51:44.999Z</time></trkpt><trkpt lat="44.81239070496049" lon="4.797767159211339"><ele>95.28571428571429</ele><time>2026-04-24T15:51:49.999Z</time></trkpt><trkpt lat="44.81246063128413" lon="4.797835204475479"><ele>95.14285714285714</ele><time>2026-04-24T15:51:55.999Z</time></trkpt><trkpt lat="44.81254828721344" lon="4.797858064852831"><ele>95.0</ele><time>2026-04-24T15:51:58.999Z</time></trkpt><trkpt lat="44.812624848284116" lon="4.7978760320335825"><ele>95.14285714285714</ele><time>2026-04-24T15:52:00.999Z</time></trkpt><trkpt lat="44.81269945955967" lon="4.797893863367992"><ele>95.28571428571429</ele><time>2026-04-24T15:52:02.999Z</time></trkpt><trkpt lat="44.81277633057522" lon="4.797912151713206"><ele>95.42857142857142</ele><time>2026-04-24T15:52:04.999Z</time></trkpt><trkpt lat="44.812849124326526" lon="4.797937442644728"><ele>95.57142857142857</ele><time>2026-04-24T15:52:06.999Z</time></trkpt><trkpt lat="44.8129223487961" lon="4.797951481065054"><ele>95.71428571428571</ele><time>2026-04-24T15:52:08.999Z</time></trkpt><trkpt lat="44.812996591765256" lon="4.797962431697514"><ele>95.85714285714285</ele><time>2026-04-24T15:52:10.999Z</time></trkpt><trkpt lat="44.813062226874194" lon="4.797979395449934"><ele>96.0</ele><time>2026-04-24T15:52:12.999Z</time></trkpt><trkpt lat="44.81313258359611" lon="4.798002848904212"><ele>96.0</ele><time>2026-04-24T15:52:14.999Z</time></trkpt><trkpt lat="44.813218155780696" lon="4.798037011942351"><ele>96.0</ele><time>2026-04-24T15:52:16.999Z</time></trkpt><trkpt lat="44.81331072830443" lon="4.798065753093882"><ele>96.0</ele><time>2026-04-24T15:52:18.999Z</time></trkpt><trkpt lat="44.81339993468679" lon="4.798072800845681"><ele>96.0</ele><time>2026-04-24T15:52:20.999Z</time></trkpt><trkpt lat="44.813474972387475" lon="4.798068724228084"><ele>96.0</ele><time>2026-04-24T15:52:22.999Z</time></trkpt><trkpt lat="44.81356635584317" lon="4.798056981397673"><ele>96.0</ele><time>2026-04-24T15:52:25.999Z</time></trkpt><trkpt lat="44.81362871889398" lon="4.79804472021149"><ele>96.5</ele><time>2026-04-24T15:52:27.999Z</time></trkpt><trkpt lat="44.81371317625162" lon="4.798003012263705"><ele>97.0</ele><time>2026-04-24T15:52:30.999Z</time></trkpt><trkpt lat="44.81378263677324" lon="4.797915747653542"><ele>97.5</ele><time>2026-04-24T15:52:33.999Z</time></trkpt><trkpt lat="44.813811303303" lon="4.797791569431358"><ele>98.0</ele><time>2026-04-24T15:52:36.999Z</time></trkpt><trkpt lat="44.81383385582699" lon="4.797702800868157"><ele>98.5</ele><time>2026-04-24T15:52:38.999Z</time></trkpt><trkpt lat="44.813866584465615" lon="4.797573481027509"><ele>99.0</ele><time>2026-04-24T15:52:41.999Z</time></trkpt><trkpt lat="44.813830070556364" lon="4.797469212966244"><ele>99.33333333333333</ele><time>2026-04-24T15:52:44.999Z</time></trkpt><trkpt lat="44.813756859670995" lon="4.797388601859279"><ele>99.66666666666666</ele><time>2026-04-24T15:52:47.999Z</time></trkpt><trkpt lat="44.81369195959172" lon="4.797305452487728"><ele>100.0</ele><time>2026-04-24T15:52:50.999Z</time></trkpt><trkpt lat="44.81364304540225" lon="4.797248904866829"><ele>100.33333333333333</ele><time>2026-04-24T15:52:52.999Z</time></trkpt><trkpt lat="44.81359561140536" lon="4.7971833025175625"><ele>100.66666666666666</ele><time>2026-04-24T15:52:54.999Z</time></trkpt><trkpt lat="44.81354642517065" lon="4.7971267652832035"><ele>101.0</ele><time>2026-04-24T15:52:56.999Z</time></trkpt><trkpt lat="44.81347255886028" lon="4.797051983821726"><ele>100.99999999999999</ele><time>2026-04-24T15:52:59.999Z</time></trkpt><trkpt lat="44.813395001689905" lon="4.796988553724765"><ele>101.0</ele><time>2026-04-24T15:53:02.999Z</time></trkpt><trkpt lat="44.813310106770366" lon="4.7969286849758275"><ele>101.0</ele><time>2026-04-24T15:53:05.999Z</time></trkpt><trkpt lat="44.81325395256309" lon="4.796872909043869"><ele>101.0</ele><time>2026-04-24T15:53:07.999Z</time></trkpt><trkpt lat="44.8131945306515" lon="4.796821374750672"><ele>100.99999999999999</ele><time>2026-04-24T15:53:09.999Z</time></trkpt><trkpt lat="44.81313781412087" lon="4.7967662220904845"><ele>101.0</ele><time>2026-04-24T15:53:11.999Z</time></trkpt><trkpt lat="44.813073055649504" lon="4.796704277316522"><ele>102.99999999999999</ele><time>2026-04-24T15:53:13.999Z</time></trkpt><trkpt lat="44.81301104072608" lon="4.7966321613789455"><ele>105.0</ele><time>2026-04-24T15:53:15.999Z</time></trkpt><trkpt lat="44.81294733834839" lon="4.796558878606544"><ele>107.0</ele><time>2026-04-24T15:53:17.999Z</time></trkpt><trkpt lat="44.81288915708627" lon="4.796481460802652"><ele>109.0</ele><time>2026-04-24T15:53:19.999Z</time></trkpt><trkpt lat="44.81283326465901" lon="4.796394666311848"><ele>110.99999999999999</ele><time>2026-04-24T15:53:21.999Z</time></trkpt><trkpt lat="44.81276552501986" lon="4.7963039027442145"><ele>113.0</ele><time>2026-04-24T15:53:23.999Z</time></trkpt><trkpt lat="44.81268953577731" lon="4.796212400828252"><ele>112.2</ele><time>2026-04-24T15:53:25.999Z</time></trkpt><trkpt lat="44.81260148159827" lon="4.796121878316858"><ele>111.4</ele><time>2026-04-24T15:53:27.999Z</time></trkpt><trkpt lat="44.81250806774853" lon="4.796030759633145"><ele>110.60000000000001</ele><time>2026-04-24T15:53:29.999Z</time></trkpt><trkpt lat="44.81241502514722" lon="4.795937389523278"><ele>109.80000000000001</ele><time>2026-04-24T15:53:31.999Z</time></trkpt><trkpt lat="44.81233255671481" lon="4.795831874093069"><ele>109.0</ele><time>2026-04-24T15:53:33.999Z</time></trkpt><trkpt lat="44.81232624866239" lon="4.79567890443446"><ele>109.0</ele><time>2026-04-24T15:53:35.999Z</time></trkpt><trkpt lat="44.81237630197148" lon="4.795552163833435"><ele>109.0</ele><time>2026-04-24T15:53:37.999Z</time></trkpt><trkpt lat="44.8124117709827" lon="4.795429601382766"><ele>109.0</ele><time>2026-04-24T15:53:39.999Z</time></trkpt><trkpt lat="44.81244248344832" lon="4.795301628818611"><ele>109.0</ele><time>2026-04-24T15:53:41.999Z</time></trkpt><trkpt lat="44.81248387354586" lon="4.795191084591725"><ele>109.0</ele><time>2026-04-24T15:53:43.999Z</time></trkpt><trkpt lat="44.81252277176046" lon="4.795075689980103"><ele>109.33333333333334</ele><time>2026-04-24T15:53:45.999Z</time></trkpt><trkpt lat="44.81254752462696" lon="4.794951336837636"><ele>109.66666666666667</ele><time>2026-04-24T15:53:47.999Z</time></trkpt><trkpt lat="44.81257550813626" lon="4.794833432513404"><ele>110.0</ele><time>2026-04-24T15:53:49.999Z</time></trkpt><trkpt lat="44.812599948006216" lon="4.794728600202056"><ele>110.33333333333334</ele><time>2026-04-24T15:53:51.999Z</time></trkpt><trkpt lat="44.812673686506834" lon="4.794674227233902"><ele>110.66666666666667</ele><time>2026-04-24T15:53:53.999Z</time></trkpt><trkpt lat="44.81276465355131" lon="4.794643436846548"><ele>111.0</ele><time>2026-04-24T15:53:55.999Z</time></trkpt><trkpt lat="44.81284826934332" lon="4.794572363447773"><ele>112.4</ele><time>2026-04-24T15:53:57.999Z</time></trkpt><trkpt lat="44.81294100007412" lon="4.794534815277488"><ele>113.8</ele><time>2026-04-24T15:53:59.999Z</time></trkpt><trkpt lat="44.81302501236555" lon="4.794503959907239"><ele>115.20000000000002</ele><time>2026-04-24T15:54:01.999Z</time></trkpt><trkpt lat="44.81311397922262" lon="4.794460279287033"><ele>116.60000000000001</ele><time>2026-04-24T15:54:03.999Z</time></trkpt><trkpt lat="44.8132170448793" lon="4.79444220837775"><ele>118.0</ele><time>2026-04-24T15:54:05.999Z</time></trkpt><trkpt lat="44.81330358103039" lon="4.794433076899123"><ele>118.00000000000001</ele><time>2026-04-24T15:54:07.998Z</time></trkpt><trkpt lat="44.81339574675712" lon="4.794421225763453"><ele>118.0</ele><time>2026-04-24T15:54:09.998Z</time></trkpt><trkpt lat="44.8134720913312" lon="4.7943982754795496"><ele>118.0</ele><time>2026-04-24T15:54:11.998Z</time></trkpt><trkpt lat="44.813554771020605" lon="4.794395888769342"><ele>118.0</ele><time>2026-04-24T15:54:13.998Z</time></trkpt><trkpt lat="44.813631798584495" lon="4.794392273570673"><ele>118.00000000000001</ele><time>2026-04-24T15:54:15.998Z</time></trkpt><trkpt lat="44.81371920747902" lon="4.794405860345004"><ele>118.0</ele><time>2026-04-24T15:54:17.998Z</time></trkpt><trkpt lat="44.813801035725916" lon="4.79439409950341"><ele>118.66666666666667</ele><time>2026-04-24T15:54:19.998Z</time></trkpt><trkpt lat="44.81388636074139" lon="4.7943890100730115"><ele>119.33333333333334</ele><time>2026-04-24T15:54:21.998Z</time></trkpt><trkpt lat="44.81397483036999" lon="4.794375649667938"><ele>120.0</ele><time>2026-04-24T15:54:23.998Z</time></trkpt><trkpt lat="44.814051507547155" lon="4.7943505489385485"><ele>120.66666666666666</ele><time>2026-04-24T15:54:25.998Z</time></trkpt><trkpt lat="44.81413271807054" lon="4.794297093747912"><ele>121.33333333333333</ele><time>2026-04-24T15:54:27.998Z</time></trkpt><trkpt lat="44.814220994725574" lon="4.794270921486151"><ele>122.0</ele><time>2026-04-24T15:54:29.998Z</time></trkpt><trkpt lat="44.81431287905712" lon="4.794225822712826"><ele>121.83333333333333</ele><time>2026-04-24T15:54:31.998Z</time></trkpt><trkpt lat="44.81439111008517" lon="4.794157520879188"><ele>121.66666666666666</ele><time>2026-04-24T15:54:33.998Z</time></trkpt><trkpt lat="44.81447769608381" lon="4.79409020799083"><ele>121.5</ele><time>2026-04-24T15:54:35.998Z</time></trkpt><trkpt lat="44.81453685317703" lon="4.793999037601901"><ele>121.33333333333334</ele><time>2026-04-24T15:54:37.998Z</time></trkpt><trkpt lat="44.81458901821248" lon="4.793904903445228"><ele>121.16666666666667</ele><time>2026-04-24T15:54:39.998Z</time></trkpt><trkpt lat="44.81464173782152" lon="4.793819346897171"><ele>121.0</ele><time>2026-04-24T15:54:41.998Z</time></trkpt><trkpt lat="44.81468714529568" lon="4.7937195172578955"><ele>121.00000000000001</ele><time>2026-04-24T15:54:43.998Z</time></trkpt><trkpt lat="44.8147295958494" lon="4.793627741379863"><ele>121.0</ele><time>2026-04-24T15:54:45.998Z</time></trkpt><trkpt lat="44.81476131294639" lon="4.793532218256713"><ele>121.0</ele><time>2026-04-24T15:54:47.998Z</time></trkpt><trkpt lat="44.81478756371845" lon="4.7934273801908285"><ele>121.0</ele><time>2026-04-24T15:54:49.998Z</time></trkpt><trkpt lat="44.81481325801932" lon="4.7933385233155015"><ele>121.00000000000001</ele><time>2026-04-24T15:54:51.998Z</time></trkpt><trkpt lat="44.814828983140956" lon="4.7932364570229335"><ele>121.0</ele><time>2026-04-24T15:54:53.998Z</time></trkpt><trkpt lat="44.8148415724552" lon="4.793108610954764"><ele>120.16666666666667</ele><time>2026-04-24T15:54:56.998Z</time></trkpt><trkpt lat="44.814848715348106" lon="4.792996675147344"><ele>119.33333333333334</ele><time>2026-04-24T15:54:58.998Z</time></trkpt><trkpt lat="44.814847679905945" lon="4.792870323315762"><ele>118.5</ele><time>2026-04-24T15:55:00.998Z</time></trkpt><trkpt lat="44.81484536538599" lon="4.792754259014427"><ele>117.66666666666666</ele><time>2026-04-24T15:55:02.998Z</time></trkpt><trkpt lat="44.814838593380045" lon="4.792662852605653"><ele>116.83333333333333</ele><time>2026-04-24T15:55:04.998Z</time></trkpt><trkpt lat="44.81482759562914" lon="4.792559832987962"><ele>116.0</ele><time>2026-04-24T15:55:06.998Z</time></trkpt><trkpt lat="44.81482979575427" lon="4.7924346142435255"><ele>115.66666666666666</ele><time>2026-04-24T15:55:08.998Z</time></trkpt><trkpt lat="44.81483104950842" lon="4.792317276337407"><ele>115.33333333333333</ele><time>2026-04-24T15:55:10.998Z</time></trkpt><trkpt lat="44.81482307599065" lon="4.79221707020717"><ele>115.0</ele><time>2026-04-24T15:55:12.998Z</time></trkpt><trkpt lat="44.81483496777758" lon="4.792124448879025"><ele>114.66666666666666</ele><time>2026-04-24T15:55:14.998Z</time></trkpt><trkpt lat="44.8148416700691" lon="4.7920164271933325"><ele>114.33333333333333</ele><time>2026-04-24T15:55:16.998Z</time></trkpt><trkpt lat="44.814852558448166" lon="4.7918879080613666"><ele>114.0</ele><time>2026-04-24T15:55:18.998Z</time></trkpt><trkpt lat="44.814884465826395" lon="4.791733825004156"><ele>114.0</ele><time>2026-04-24T15:55:20.998Z</time></trkpt><trkpt lat="44.81491795132055" lon="4.791583926735799"><ele>114.0</ele><time>2026-04-24T15:55:22.998Z</time></trkpt><trkpt lat="44.81496534577533" lon="4.791421563031566"><ele>114.0</ele><time>2026-04-24T15:55:24.998Z</time></trkpt><trkpt lat="44.81502991725549" lon="4.791275402057619"><ele>114.0</ele><time>2026-04-24T15:55:26.998Z</time></trkpt><trkpt lat="44.815094708097135" lon="4.791129603227776"><ele>112.75</ele><time>2026-04-24T15:55:28.998Z</time></trkpt><trkpt lat="44.81516571750501" lon="4.791003871330209"><ele>111.5</ele><time>2026-04-24T15:55:30.998Z</time></trkpt><trkpt lat="44.81523602248013" lon="4.790877498835082"><ele>110.25</ele><time>2026-04-24T15:55:32.998Z</time></trkpt><trkpt lat="44.81531380688123" lon="4.790748465920019"><ele>109.0</ele><time>2026-04-24T15:55:34.998Z</time></trkpt><trkpt lat="44.815384457798245" lon="4.79062105852088"><ele>109.0</ele><time>2026-04-24T15:55:36.998Z</time></trkpt><trkpt lat="44.81545806905109" lon="4.7904893050573945"><ele>109.0</ele><time>2026-04-24T15:55:38.998Z</time></trkpt><trkpt lat="44.81553140295496" lon="4.790355280286112"><ele>109.0</ele><time>2026-04-24T15:55:40.998Z</time></trkpt><trkpt lat="44.81559526779726" lon="4.790213074206545"><ele>109.0</ele><time>2026-04-24T15:55:42.998Z</time></trkpt><trkpt lat="44.81564746620781" lon="4.790061555150746"><ele>109.6</ele><time>2026-04-24T15:55:44.998Z</time></trkpt><trkpt lat="44.815701244886775" lon="4.789925815219227"><ele>110.2</ele><time>2026-04-24T15:55:46.998Z</time></trkpt><trkpt lat="44.81574197733205" lon="4.7898273909358045"><ele>110.79999999999998</ele><time>2026-04-24T15:55:48.998Z</time></trkpt><trkpt lat="44.815790788507506" lon="4.789727608091815"><ele>111.39999999999999</ele><time>2026-04-24T15:55:50.998Z</time></trkpt><trkpt lat="44.815845762308804" lon="4.789581442606668"><ele>112.0</ele><time>2026-04-24T15:55:52.998Z</time></trkpt><trkpt lat="44.81587587052803" lon="4.789492954396243"><ele>112.0</ele><time>2026-04-24T15:55:53.998Z</time></trkpt><trkpt lat="44.815906741026936" lon="4.789398503882144"><ele>112.0</ele><time>2026-04-24T15:55:54.998Z</time></trkpt><trkpt lat="44.815940295787215" lon="4.789314140611679"><ele>112.0</ele><time>2026-04-24T15:55:55.998Z</time></trkpt><trkpt lat="44.81597194150763" lon="4.789218945873004"><ele>112.0</ele><time>2026-04-24T15:55:56.998Z</time></trkpt><trkpt lat="44.816001395887334" lon="4.789125974490431"><ele>112.0</ele><time>2026-04-24T15:55:57.998Z</time></trkpt><trkpt lat="44.816041067940674" lon="4.78903976736605"><ele>112.0</ele><time>2026-04-24T15:55:58.998Z</time></trkpt><trkpt lat="44.81608177483771" lon="4.788955121585323"><ele>112.0</ele><time>2026-04-24T15:55:59.998Z</time></trkpt><trkpt lat="44.81611856144334" lon="4.788861876479106"><ele>111.57142857142857</ele><time>2026-04-24T15:56:00.998Z</time></trkpt><trkpt lat="44.816155537028145" lon="4.78877259412978"><ele>111.14285714285714</ele><time>2026-04-24T15:56:01.998Z</time></trkpt><trkpt lat="44.81618913507284" lon="4.788676986362156"><ele>110.71428571428572</ele><time>2026-04-24T15:56:02.998Z</time></trkpt><trkpt lat="44.81622417236305" lon="4.788593601212103"><ele>110.28571428571428</ele><time>2026-04-24T15:56:03.998Z</time></trkpt><trkpt lat="44.81626308214281" lon="4.788508272632971"><ele>109.85714285714286</ele><time>2026-04-24T15:56:04.998Z</time></trkpt><trkpt lat="44.81629578707403" lon="4.78841591352623"><ele>109.42857142857143</ele><time>2026-04-24T15:56:05.998Z</time></trkpt><trkpt lat="44.81632620161673" lon="4.788318677728709"><ele>109.0</ele><time>2026-04-24T15:56:06.998Z</time></trkpt><trkpt lat="44.81636682619791" lon="4.78824680870236"><ele>109.0</ele><time>2026-04-24T15:56:07.998Z</time></trkpt><trkpt lat="44.81640407631381" lon="4.7881552635094895"><ele>109.0</ele><time>2026-04-24T15:56:08.998Z</time></trkpt><trkpt lat="44.816438080698944" lon="4.78806518500889"><ele>109.0</ele><time>2026-04-24T15:56:09.998Z</time></trkpt><trkpt lat="44.81647636848361" lon="4.787988092443591"><ele>109.0</ele><time>2026-04-24T15:56:10.998Z</time></trkpt><trkpt lat="44.816517798574715" lon="4.787916164879518"><ele>109.0</ele><time>2026-04-24T15:56:11.998Z</time></trkpt><trkpt lat="44.816552035706984" lon="4.7878384286708116"><ele>109.0</ele><time>2026-04-24T15:56:12.998Z</time></trkpt><trkpt lat="44.81659536291094" lon="4.787755263229005"><ele>109.0</ele><time>2026-04-24T15:56:13.998Z</time></trkpt><trkpt lat="44.81667323655172" lon="4.787608131552936"><ele>109.00000000000001</ele><time>2026-04-24T15:56:15.998Z</time></trkpt><trkpt lat="44.81671373081831" lon="4.787529794499328"><ele>109.0</ele><time>2026-04-24T15:56:16.998Z</time></trkpt><trkpt lat="44.816760090637516" lon="4.787461581495561"><ele>109.0</ele><time>2026-04-24T15:56:17.998Z</time></trkpt><trkpt lat="44.81680250410629" lon="4.787391152370995"><ele>109.0</ele><time>2026-04-24T15:56:18.998Z</time></trkpt><trkpt lat="44.816842489253595" lon="4.787311080459099"><ele>109.00000000000001</ele><time>2026-04-24T15:56:19.998Z</time></trkpt><trkpt lat="44.81691697076529" lon="4.787175941405025"><ele>109.0</ele><time>2026-04-24T15:56:21.998Z</time></trkpt><trkpt lat="44.81700000477452" lon="4.787068724890336"><ele>109.00000000000001</ele><time>2026-04-24T15:56:23.998Z</time></trkpt><trkpt lat="44.81707912021437" lon="4.786997414053105"><ele>109.0</ele><time>2026-04-24T15:56:25.998Z</time></trkpt><trkpt lat="44.817138143309855" lon="4.786965283726894"><ele>109.0</ele><time>2026-04-24T15:56:28.998Z</time></trkpt><trkpt lat="44.81721170683261" lon="4.78691443726345"><ele>109.0</ele><time>2026-04-24T15:56:30.998Z</time></trkpt><trkpt lat="44.81727292425611" lon="4.786858286506675"><ele>109.00000000000001</ele><time>2026-04-24T15:56:32.998Z</time></trkpt><trkpt lat="44.81735029534825" lon="4.7867871469872245"><ele>109.0</ele><time>2026-04-24T15:56:34.998Z</time></trkpt><trkpt lat="44.81746366687559" lon="4.786717719609427"><ele>108.6</ele><time>2026-04-24T15:56:36.998Z</time></trkpt><trkpt lat="44.81752929412274" lon="4.786677278708622"><ele>108.2</ele><time>2026-04-24T15:56:37.998Z</time></trkpt><trkpt lat="44.81762836651997" lon="4.786589819770375"><ele>107.79999999999998</ele><time>2026-04-24T15:56:39.998Z</time></trkpt><trkpt lat="44.81772840806581" lon="4.786493962207933"><ele>107.39999999999999</ele><time>2026-04-24T15:56:41.998Z</time></trkpt><trkpt lat="44.81782266366415" lon="4.786397852957636"><ele>107.0</ele><time>2026-04-24T15:56:43.998Z</time></trkpt><trkpt lat="44.81791126859773" lon="4.786294883619163"><ele>107.0</ele><time>2026-04-24T15:56:45.998Z</time></trkpt><trkpt lat="44.81800773134471" lon="4.786191452155167"><ele>107.0</ele><time>2026-04-24T15:56:47.998Z</time></trkpt><trkpt lat="44.81809636224573" lon="4.786091938543428"><ele>107.0</ele><time>2026-04-24T15:56:49.998Z</time></trkpt><trkpt lat="44.81818596340096" lon="4.785988795464824"><ele>107.0</ele><time>2026-04-24T15:56:51.998Z</time></trkpt><trkpt lat="44.81826296246548" lon="4.785866649481697"><ele>107.0</ele><time>2026-04-24T15:56:53.998Z</time></trkpt><trkpt lat="44.818335780389134" lon="4.785762999521322"><ele>106.99999999999999</ele><time>2026-04-24T15:56:55.998Z</time></trkpt><trkpt lat="44.818417315314896" lon="4.785634999020214"><ele>106.99999999999999</ele><time>2026-04-24T15:56:57.998Z</time></trkpt><trkpt lat="44.81851768767377" lon="4.785530592633492"><ele>107.0</ele><time>2026-04-24T15:56:59.998Z</time></trkpt><trkpt lat="44.8185779685624" lon="4.785477413044786"><ele>107.0</ele><time>2026-04-24T15:57:00.998Z</time></trkpt><trkpt lat="44.8186375406458" lon="4.7854236421399605"><ele>107.0</ele><time>2026-04-24T15:57:01.998Z</time></trkpt><trkpt lat="44.81872489520981" lon="4.785314010453725"><ele>107.0</ele><time>2026-04-24T15:57:03.998Z</time></trkpt><trkpt lat="44.818822829237305" lon="4.785220074066842"><ele>107.0</ele><time>2026-04-24T15:57:05.998Z</time></trkpt><trkpt lat="44.81890868830766" lon="4.78511499847465"><ele>107.0</ele><time>2026-04-24T15:57:07.998Z</time></trkpt><trkpt lat="44.81900405711943" lon="4.7850322334331485"><ele>107.0</ele><time>2026-04-24T15:57:09.998Z</time></trkpt><trkpt lat="44.81908449992174" lon="4.784932646114386"><ele>106.99999999999999</ele><time>2026-04-24T15:57:11.998Z</time></trkpt><trkpt lat="44.819156296201946" lon="4.784823005022945"><ele>106.99999999999999</ele><time>2026-04-24T15:57:13.998Z</time></trkpt><trkpt lat="44.81923593475984" lon="4.784716999472659"><ele>107.0</ele><time>2026-04-24T15:57:15.998Z</time></trkpt><trkpt lat="44.81932080004778" lon="4.784623331873472"><ele>107.0</ele><time>2026-04-24T15:57:17.998Z</time></trkpt><trkpt lat="44.81940170484871" lon="4.784510175625673"><ele>107.0</ele><time>2026-04-24T15:57:19.998Z</time></trkpt><trkpt lat="44.819473910554876" lon="4.784405302354172"><ele>106.99999999999999</ele><time>2026-04-24T15:57:21.998Z</time></trkpt><trkpt lat="44.81955643709874" lon="4.784305390770703"><ele>106.99999999999999</ele><time>2026-04-24T15:57:23.998Z</time></trkpt><trkpt lat="44.81965078881869" lon="4.7842175249175165"><ele>107.0</ele><time>2026-04-24T15:57:25.998Z</time></trkpt><trkpt lat="44.81973300461263" lon="4.784119711775572"><ele>107.0</ele><time>2026-04-24T15:57:27.998Z</time></trkpt><trkpt lat="44.81982120151183" lon="4.784024654569365"><ele>106.8</ele><time>2026-04-24T15:57:29.998Z</time></trkpt><trkpt lat="44.81990418199654" lon="4.783934993066776"><ele>106.6</ele><time>2026-04-24T15:57:31.998Z</time></trkpt><trkpt lat="44.81997166864223" lon="4.783843357204307"><ele>106.39999999999999</ele><time>2026-04-24T15:57:33.998Z</time></trkpt><trkpt lat="44.820058154476605" lon="4.783754664787984"><ele>106.19999999999999</ele><time>2026-04-24T15:57:35.998Z</time></trkpt><trkpt lat="44.82013375870125" lon="4.783668573599832"><ele>106.0</ele><time>2026-04-24T15:57:37.998Z</time></trkpt><trkpt lat="44.82021607754059" lon="4.7835733406960275"><ele>107.8</ele><time>2026-04-24T15:57:39.998Z</time></trkpt><trkpt lat="44.8202988221955" lon="4.783485154042475"><ele>109.6</ele><time>2026-04-24T15:57:41.998Z</time></trkpt><trkpt lat="44.82037845901577" lon="4.783392800331107"><ele>111.4</ele><time>2026-04-24T15:57:43.998Z</time></trkpt><trkpt lat="44.82045405593453" lon="4.783316154920605"><ele>113.2</ele><time>2026-04-24T15:57:45.998Z</time></trkpt><trkpt lat="44.820543007525764" lon="4.783226259664913"><ele>115.0</ele><time>2026-04-24T15:57:47.998Z</time></trkpt><trkpt lat="44.82062904164686" lon="4.783155193106344"><ele>115.0</ele><time>2026-04-24T15:57:49.998Z</time></trkpt><trkpt lat="44.820712896899984" lon="4.783094238660571"><ele>115.0</ele><time>2026-04-24T15:57:51.998Z</time></trkpt><trkpt lat="44.82081750887483" lon="4.783038155332909"><ele>115.0</ele><time>2026-04-24T15:57:53.998Z</time></trkpt><trkpt lat="44.82092407028506" lon="4.782971319502532"><ele>115.0</ele><time>2026-04-24T15:57:55.998Z</time></trkpt><trkpt lat="44.82102603419448" lon="4.782909355360577"><ele>115.0</ele><time>2026-04-24T15:57:57.998Z</time></trkpt><trkpt lat="44.821108467674364" lon="4.782839491934955"><ele>114.8</ele><time>2026-04-24T15:57:59.998Z</time></trkpt><trkpt lat="44.8211933344855" lon="4.782762793705713"><ele>114.6</ele><time>2026-04-24T15:58:01.998Z</time></trkpt><trkpt lat="44.821273167499655" lon="4.782665446146891"><ele>114.4</ele><time>2026-04-24T15:58:03.998Z</time></trkpt><trkpt lat="44.821343130191636" lon="4.782585934577094"><ele>114.2</ele><time>2026-04-24T15:58:05.998Z</time></trkpt><trkpt lat="44.821431876836044" lon="4.782491909843284"><ele>114.0</ele><time>2026-04-24T15:58:07.998Z</time></trkpt><trkpt lat="44.82149741632813" lon="4.782387494304848"><ele>114.0</ele><time>2026-04-24T15:58:09.998Z</time></trkpt><trkpt lat="44.82157207205979" lon="4.782288439675669"><ele>114.0</ele><time>2026-04-24T15:58:11.998Z</time></trkpt><trkpt lat="44.821635522950004" lon="4.782176274892209"><ele>114.0</ele><time>2026-04-24T15:58:13.998Z</time></trkpt><trkpt lat="44.821686178355186" lon="4.782064926521067"><ele>114.0</ele><time>2026-04-24T15:58:15.998Z</time></trkpt><trkpt lat="44.821746047116214" lon="4.781946026177322"><ele>114.0</ele><time>2026-04-24T15:58:17.998Z</time></trkpt><trkpt lat="44.821793546870104" lon="4.781831261484327"><ele>111.6</ele><time>2026-04-24T15:58:19.998Z</time></trkpt><trkpt lat="44.821837711690506" lon="4.781703527143428"><ele>109.2</ele><time>2026-04-24T15:58:21.998Z</time></trkpt><trkpt lat="44.821865551829454" lon="4.781579492294833"><ele>106.8</ele><time>2026-04-24T15:58:23.998Z</time></trkpt><trkpt lat="44.821899236423945" lon="4.7814470533665565"><ele>104.39999999999999</ele><time>2026-04-24T15:58:25.998Z</time></trkpt><trkpt lat="44.82192960898182" lon="4.78131184085004"><ele>102.0</ele><time>2026-04-24T15:58:27.998Z</time></trkpt><trkpt lat="44.82194615156578" lon="4.781177592495459"><ele>102.0</ele><time>2026-04-24T15:58:29.998Z</time></trkpt><trkpt lat="44.821973496257826" lon="4.781054392750097"><ele>102.0</ele><time>2026-04-24T15:58:31.998Z</time></trkpt><trkpt lat="44.8220043502927" lon="4.780925931093983"><ele>102.0</ele><time>2026-04-24T15:58:33.998Z</time></trkpt><trkpt lat="44.82202975936319" lon="4.780800175567973"><ele>102.0</ele><time>2026-04-24T15:58:35.998Z</time></trkpt><trkpt lat="44.82206445020975" lon="4.780675142650072"><ele>102.0</ele><time>2026-04-24T15:58:37.998Z</time></trkpt><trkpt lat="44.82209809001305" lon="4.780546686988747"><ele>103.0</ele><time>2026-04-24T15:58:39.998Z</time></trkpt><trkpt lat="44.822130651687104" lon="4.780425972743669"><ele>104.0</ele><time>2026-04-24T15:58:41.998Z</time></trkpt><trkpt lat="44.82216515345128" lon="4.780296777175028"><ele>104.99999999999999</ele><time>2026-04-24T15:58:43.998Z</time></trkpt><trkpt lat="44.82218176876275" lon="4.780156807268283"><ele>106.0</ele><time>2026-04-24T15:58:45.998Z</time></trkpt><trkpt lat="44.82219536617243" lon="4.780019845076008"><ele>107.0</ele><time>2026-04-24T15:58:47.998Z</time></trkpt><trkpt lat="44.82220028253344" lon="4.779889183237106"><ele>107.6</ele><time>2026-04-24T15:58:49.998Z</time></trkpt><trkpt lat="44.82219957944224" lon="4.779765245698669"><ele>108.19999999999999</ele><time>2026-04-24T15:58:51.998Z</time></trkpt><trkpt lat="44.82220644022172" lon="4.779630797232276"><ele>108.8</ele><time>2026-04-24T15:58:53.998Z</time></trkpt><trkpt lat="44.822188405916044" lon="4.779502473919503"><ele>109.4</ele><time>2026-04-24T15:58:55.998Z</time></trkpt><trkpt lat="44.822188426088246" lon="4.779368282195515"><ele>110.0</ele><time>2026-04-24T15:58:57.998Z</time></trkpt><trkpt lat="44.82218693299435" lon="4.779235640917237"><ele>110.2</ele><time>2026-04-24T15:58:59.998Z</time></trkpt><trkpt lat="44.82218588286473" lon="4.779112270318844"><ele>110.4</ele><time>2026-04-24T15:59:01.998Z</time></trkpt><trkpt lat="44.82219685167009" lon="4.778984169256578"><ele>110.6</ele><time>2026-04-24T15:59:03.998Z</time></trkpt><trkpt lat="44.82220025815263" lon="4.778820805712214"><ele>110.8</ele><time>2026-04-24T15:59:05.998Z</time></trkpt><trkpt lat="44.82219752151892" lon="4.778686954926629"><ele>111.0</ele><time>2026-04-24T15:59:07.998Z</time></trkpt><trkpt lat="44.82217673234571" lon="4.778540364346135"><ele>110.8</ele><time>2026-04-24T15:59:09.998Z</time></trkpt><trkpt lat="44.82217344926579" lon="4.778379376713139"><ele>110.6</ele><time>2026-04-24T15:59:11.998Z</time></trkpt><trkpt lat="44.82215905323637" lon="4.778286441893997"><ele>110.4</ele><time>2026-04-24T15:59:12.998Z</time></trkpt><trkpt lat="44.82215559739708" lon="4.778138148629177"><ele>110.2</ele><time>2026-04-24T15:59:14.998Z</time></trkpt><trkpt lat="44.8221331732966" lon="4.777999167345024"><ele>110.0</ele><time>2026-04-24T15:59:16.998Z</time></trkpt><trkpt lat="44.8221090656248" lon="4.777857874168304"><ele>110.0</ele><time>2026-04-24T15:59:18.998Z</time></trkpt><trkpt lat="44.822091323399064" lon="4.77773589186259"><ele>110.0</ele><time>2026-04-24T15:59:20.998Z</time></trkpt><trkpt lat="44.82207300493859" lon="4.777573297552844"><ele>110.0</ele><time>2026-04-24T15:59:22.998Z</time></trkpt><trkpt lat="44.82204066052406" lon="4.777436358307804"><ele>110.0</ele><time>2026-04-24T15:59:24.998Z</time></trkpt><trkpt lat="44.822020474143976" lon="4.777349836395488"><ele>110.0</ele><time>2026-04-24T15:59:25.998Z</time></trkpt><trkpt lat="44.82199311877608" lon="4.777211609651747"><ele>109.8</ele><time>2026-04-24T15:59:27.998Z</time></trkpt><trkpt lat="44.82195925842808" lon="4.7770692627660845"><ele>109.6</ele><time>2026-04-24T15:59:29.998Z</time></trkpt><trkpt lat="44.82192169088943" lon="4.7769282963940265"><ele>109.4</ele><time>2026-04-24T15:59:31.998Z</time></trkpt><trkpt lat="44.821908278199714" lon="4.776798916662237"><ele>109.2</ele><time>2026-04-24T15:59:33.998Z</time></trkpt><trkpt lat="44.82189117042706" lon="4.7766573152026695"><ele>109.0</ele><time>2026-04-24T15:59:35.998Z</time></trkpt><trkpt lat="44.82186430187678" lon="4.776487425674295"><ele>108.5</ele><time>2026-04-24T15:59:37.998Z</time></trkpt><trkpt lat="44.821837052832734" lon="4.776326690213243"><ele>108.0</ele><time>2026-04-24T15:59:39.998Z</time></trkpt><trkpt lat="44.82183684083116" lon="4.776184025441607"><ele>107.5</ele><time>2026-04-24T15:59:41.998Z</time></trkpt><trkpt lat="44.82181965200987" lon="4.776015807105882"><ele>107.0</ele><time>2026-04-24T15:59:43.998Z</time></trkpt><trkpt lat="44.82180278817002" lon="4.775861431826664"><ele>111.39999999999999</ele><time>2026-04-24T15:59:45.998Z</time></trkpt><trkpt lat="44.82179829418387" lon="4.775715502425863"><ele>115.79999999999998</ele><time>2026-04-24T15:59:47.998Z</time></trkpt><trkpt lat="44.82179719454584" lon="4.775565496106205"><ele>120.2</ele><time>2026-04-24T15:59:49.998Z</time></trkpt><trkpt lat="44.8217666057616" lon="4.77539511709385"><ele>124.6</ele><time>2026-04-24T15:59:51.998Z</time></trkpt><trkpt lat="44.82174688917838" lon="4.775308730701806"><ele>129.0</ele><time>2026-04-24T15:59:52.998Z</time></trkpt><trkpt lat="44.82173825323123" lon="4.775166763279682"><ele>129.0</ele><time>2026-04-24T15:59:54.998Z</time></trkpt><trkpt lat="44.82170926245377" lon="4.775012002982096"><ele>129.0</ele><time>2026-04-24T15:59:56.998Z</time></trkpt><trkpt lat="44.821690156319704" lon="4.774912608413269"><ele>129.0</ele><time>2026-04-24T15:59:57.998Z</time></trkpt><trkpt lat="44.821669491192885" lon="4.774747190098737"><ele>129.0</ele><time>2026-04-24T15:59:59.998Z</time></trkpt><trkpt lat="44.82164750392534" lon="4.774564984861786"><ele>129.0</ele><time>2026-04-24T16:00:01.998Z</time></trkpt><trkpt lat="44.82164228761437" lon="4.77440464117464"><ele>128.2</ele><time>2026-04-24T16:00:03.998Z</time></trkpt><trkpt lat="44.82162077545551" lon="4.774246758408824"><ele>127.4</ele><time>2026-04-24T16:00:05.998Z</time></trkpt><trkpt lat="44.82159954151632" lon="4.774074722483685"><ele>126.6</ele><time>2026-04-24T16:00:07.998Z</time></trkpt><trkpt lat="44.82160550795159" lon="4.773905685896596"><ele>125.8</ele><time>2026-04-24T16:00:09.998Z</time></trkpt><trkpt lat="44.82160634789025" lon="4.773812464067769"><ele>125.0</ele><time>2026-04-24T16:00:10.998Z</time></trkpt><trkpt lat="44.82160407813044" lon="4.773640686554306"><ele>125.0</ele><time>2026-04-24T16:00:12.998Z</time></trkpt><trkpt lat="44.8215911508347" lon="4.7734719161957555"><ele>125.0</ele><time>2026-04-24T16:00:14.998Z</time></trkpt><trkpt lat="44.82159793278692" lon="4.773302486477906"><ele>125.0</ele><time>2026-04-24T16:00:16.998Z</time></trkpt><trkpt lat="44.821586185014105" lon="4.773131337537477"><ele>125.0</ele><time>2026-04-24T16:00:18.998Z</time></trkpt><trkpt lat="44.82157765740249" lon="4.7730418474008145"><ele>125.0</ele><time>2026-04-24T16:00:19.998Z</time></trkpt><trkpt lat="44.821564409600704" lon="4.772865989578885"><ele>125.0</ele><time>2026-04-24T16:00:21.998Z</time></trkpt><trkpt lat="44.8215568949129" lon="4.772704580904086"><ele>125.0</ele><time>2026-04-24T16:00:23.998Z</time></trkpt><trkpt lat="44.82155701267108" lon="4.772542533858042"><ele>125.0</ele><time>2026-04-24T16:00:25.998Z</time></trkpt><trkpt lat="44.82153907550642" lon="4.772387598326888"><ele>125.0</ele><time>2026-04-24T16:00:27.998Z</time></trkpt><trkpt lat="44.821530296201374" lon="4.7722455347981345"><ele>125.0</ele><time>2026-04-24T16:00:29.998Z</time></trkpt><trkpt lat="44.821535788386115" lon="4.772110831040122"><ele>124.6</ele><time>2026-04-24T16:00:31.998Z</time></trkpt><trkpt lat="44.821526175943106" lon="4.7719835488754825"><ele>124.2</ele><time>2026-04-24T16:00:33.998Z</time></trkpt><trkpt lat="44.82148179191538" lon="4.7718196688675585"><ele>123.80000000000001</ele><time>2026-04-24T16:00:35.998Z</time></trkpt><trkpt lat="44.821463177086635" lon="4.771697113518517"><ele>123.4</ele><time>2026-04-24T16:00:37.998Z</time></trkpt><trkpt lat="44.82143918792523" lon="4.771560944174371"><ele>123.0</ele><time>2026-04-24T16:00:39.998Z</time></trkpt><trkpt lat="44.821424922506196" lon="4.771464083108747"><ele>122.0</ele><time>2026-04-24T16:00:40.998Z</time></trkpt><trkpt lat="44.82140243622365" lon="4.771328613128568"><ele>121.00000000000001</ele><time>2026-04-24T16:00:42.998Z</time></trkpt><trkpt lat="44.82137428084708" lon="4.771199641087159"><ele>120.00000000000001</ele><time>2026-04-24T16:00:44.998Z</time></trkpt><trkpt lat="44.82134470563552" lon="4.771057016958621"><ele>119.0</ele><time>2026-04-24T16:00:46.998Z</time></trkpt><trkpt lat="44.82133484668962" lon="4.770959964216664"><ele>118.0</ele><time>2026-04-24T16:00:48.998Z</time></trkpt><trkpt lat="44.8213050924877" lon="4.77083438876039"><ele>117.0</ele><time>2026-04-24T16:00:50.998Z</time></trkpt><trkpt lat="44.82127734629035" lon="4.770710742764355"><ele>116.00000000000001</ele><time>2026-04-24T16:00:52.998Z</time></trkpt><trkpt lat="44.821247105637916" lon="4.77058172492649"><ele>115.00000000000001</ele><time>2026-04-24T16:00:54.998Z</time></trkpt><trkpt lat="44.82120681114295" lon="4.7704532866133365"><ele>114.0</ele><time>2026-04-24T16:00:56.998Z</time></trkpt><trkpt lat="44.8211769197586" lon="4.770323770340154"><ele>113.0</ele><time>2026-04-24T16:00:58.999Z</time></trkpt><trkpt lat="44.82116142434503" lon="4.770211819118648"><ele>111.4</ele><time>2026-04-24T16:01:00.999Z</time></trkpt><trkpt lat="44.82112442918007" lon="4.770074420593931"><ele>109.80000000000001</ele><time>2026-04-24T16:01:02.999Z</time></trkpt><trkpt lat="44.82109179030138" lon="4.769941471768266"><ele>108.2</ele><time>2026-04-24T16:01:04.999Z</time></trkpt><trkpt lat="44.821058719896726" lon="4.769807574197357"><ele>106.6</ele><time>2026-04-24T16:01:06.999Z</time></trkpt><trkpt lat="44.82104262287035" lon="4.769687097727131"><ele>105.0</ele><time>2026-04-24T16:01:08.999Z</time></trkpt><trkpt lat="44.82100710166066" lon="4.7695646326106536"><ele>105.0</ele><time>2026-04-24T16:01:10.999Z</time></trkpt><trkpt lat="44.82099227298191" lon="4.76944366521892"><ele>105.0</ele><time>2026-04-24T16:01:12.999Z</time></trkpt><trkpt lat="44.82097173914181" lon="4.7693379488102225"><ele>105.0</ele><time>2026-04-24T16:01:14.999Z</time></trkpt><trkpt lat="44.82093409062868" lon="4.769204893513779"><ele>105.0</ele><time>2026-04-24T16:01:16.999Z</time></trkpt><trkpt lat="44.82089802194657" lon="4.769079657021084"><ele>105.0</ele><time>2026-04-24T16:01:18.999Z</time></trkpt><trkpt lat="44.820854139120904" lon="4.7689307651859645"><ele>108.4</ele><time>2026-04-24T16:01:20.999Z</time></trkpt><trkpt lat="44.82083044881311" lon="4.768802291210244"><ele>111.8</ele><time>2026-04-24T16:01:22.999Z</time></trkpt><trkpt lat="44.820808103222234" lon="4.76866339051323"><ele>115.19999999999999</ele><time>2026-04-24T16:01:24.999Z</time></trkpt><trkpt lat="44.820763604832074" lon="4.768544139648849"><ele>118.6</ele><time>2026-04-24T16:01:26.999Z</time></trkpt><trkpt lat="44.82075421169443" lon="4.768393300874756"><ele>122.0</ele><time>2026-04-24T16:01:28.999Z</time></trkpt><trkpt lat="44.82072900952591" lon="4.768240349382659"><ele>122.0</ele><time>2026-04-24T16:01:30.999Z</time></trkpt><trkpt lat="44.82071159072819" lon="4.768092048661878"><ele>121.99999999999999</ele><time>2026-04-24T16:01:32.999Z</time></trkpt><trkpt lat="44.82070614531216" lon="4.768002095070679"><ele>121.99999999999999</ele><time>2026-04-24T16:01:33.999Z</time></trkpt><trkpt lat="44.82067907398822" lon="4.76789773097426"><ele>122.0</ele><time>2026-04-24T16:01:34.999Z</time></trkpt><trkpt lat="44.8206523503427" lon="4.767746446838764"><ele>122.0</ele><time>2026-04-24T16:01:36.999Z</time></trkpt><trkpt lat="44.82062039119726" lon="4.76758587820285"><ele>120.99999999999999</ele><time>2026-04-24T16:01:38.999Z</time></trkpt><trkpt lat="44.82061756768528" lon="4.767446920779535"><ele>120.0</ele><time>2026-04-24T16:01:40.999Z</time></trkpt><trkpt lat="44.82060995775223" lon="4.767316773507782"><ele>119.0</ele><time>2026-04-24T16:01:42.999Z</time></trkpt><trkpt lat="44.82059713329741" lon="4.767221180769727"><ele>118.0</ele><time>2026-04-24T16:01:44.999Z</time></trkpt><trkpt lat="44.820578303327736" lon="4.767100773771345"><ele>116.99999999999999</ele><time>2026-04-24T16:01:46.999Z</time></trkpt><trkpt lat="44.82054093452742" lon="4.766979730438271"><ele>116.0</ele><time>2026-04-24T16:01:48.999Z</time></trkpt><trkpt lat="44.820500210680464" lon="4.766854494272291"><ele>115.0</ele><time>2026-04-24T16:01:50.999Z</time></trkpt><trkpt lat="44.82048880733094" lon="4.766754488943585"><ele>114.0</ele><time>2026-04-24T16:01:52.999Z</time></trkpt><trkpt lat="44.82043270448103" lon="4.7666325347459395"><ele>113.0</ele><time>2026-04-24T16:01:55Z</time></trkpt><trkpt lat="44.82039967655502" lon="4.766509765679537"><ele>112.0</ele><time>2026-04-24T16:01:57Z</time></trkpt><trkpt lat="44.82035542024612" lon="4.766379162065636"><ele>111.0</ele><time>2026-04-24T16:01:58.999Z</time></trkpt><trkpt lat="44.82032971382514" lon="4.766232952335653"><ele>111.0</ele><time>2026-04-24T16:02:00.999Z</time></trkpt><trkpt lat="44.820314583075756" lon="4.766102217916281"><ele>111.0</ele><time>2026-04-24T16:02:02.999Z</time></trkpt><trkpt lat="44.82029036919096" lon="4.765944967260403"><ele>111.0</ele><time>2026-04-24T16:02:04.999Z</time></trkpt><trkpt lat="44.82026647095864" lon="4.765791895077375"><ele>111.0</ele><time>2026-04-24T16:02:06.999Z</time></trkpt><trkpt lat="44.82023864204629" lon="4.7656382448293035"><ele>111.0</ele><time>2026-04-24T16:02:08.999Z</time></trkpt><trkpt lat="44.82021683097021" lon="4.765503823748592"><ele>110.4</ele><time>2026-04-24T16:02:10.999Z</time></trkpt><trkpt lat="44.82018400117125" lon="4.765350541060427"><ele>109.8</ele><time>2026-04-24T16:02:12.999Z</time></trkpt><trkpt lat="44.82017796493764" lon="4.765214957694555"><ele>109.20000000000002</ele><time>2026-04-24T16:02:14.999Z</time></trkpt><trkpt lat="44.82015420471158" lon="4.765068502168721"><ele>108.60000000000001</ele><time>2026-04-24T16:02:16.999Z</time></trkpt><trkpt lat="44.820150999077775" lon="4.76490487954247"><ele>108.0</ele><time>2026-04-24T16:02:18.999Z</time></trkpt><trkpt lat="44.82014700628101" lon="4.764743973869547"><ele>115.0</ele><time>2026-04-24T16:02:20.999Z</time></trkpt><trkpt lat="44.82014643168327" lon="4.764579568715342"><ele>122.0</ele><time>2026-04-24T16:02:22.999Z</time></trkpt><trkpt lat="44.82013940998403" lon="4.764435547104935"><ele>129.0</ele><time>2026-04-24T16:02:24.999Z</time></trkpt><trkpt lat="44.82014843696821" lon="4.76427864935669"><ele>136.0</ele><time>2026-04-24T16:02:26.999Z</time></trkpt><trkpt lat="44.82013981622629" lon="4.764111090488202"><ele>136.0</ele><time>2026-04-24T16:02:28.999Z</time></trkpt><trkpt lat="44.82012417003773" lon="4.7639693701382315"><ele>136.0</ele><time>2026-04-24T16:02:30.999Z</time></trkpt><trkpt lat="44.82011164342227" lon="4.7638146308788505"><ele>136.0</ele><time>2026-04-24T16:02:32.999Z</time></trkpt><trkpt lat="44.820103953296794" lon="4.7636608480286835"><ele>136.0</ele><time>2026-04-24T16:02:34.999Z</time></trkpt><trkpt lat="44.82009159186074" lon="4.763495059376656"><ele>136.0</ele><time>2026-04-24T16:02:36.999Z</time></trkpt><trkpt lat="44.82006535727309" lon="4.763340143463133"><ele>135.0</ele><time>2026-04-24T16:02:38.999Z</time></trkpt><trkpt lat="44.820047697422396" lon="4.763198151341914"><ele>134.0</ele><time>2026-04-24T16:02:40.999Z</time></trkpt><trkpt lat="44.82002871875837" lon="4.763040157110672"><ele>133.0</ele><time>2026-04-24T16:02:42.999Z</time></trkpt><trkpt lat="44.82001154672592" lon="4.7629075506244405"><ele>132.0</ele><time>2026-04-24T16:02:44.999Z</time></trkpt><trkpt lat="44.81997908832072" lon="4.7627592323507475"><ele>131.0</ele><time>2026-04-24T16:02:46.999Z</time></trkpt><trkpt lat="44.819939378897786" lon="4.762606248289463"><ele>129.6</ele><time>2026-04-24T16:02:48.999Z</time></trkpt><trkpt lat="44.81991544576068" lon="4.762455201982313"><ele>128.2</ele><time>2026-04-24T16:02:50.999Z</time></trkpt><trkpt lat="44.819872262797965" lon="4.762312209736156"><ele>126.80000000000001</ele><time>2026-04-24T16:02:52.999Z</time></trkpt><trkpt lat="44.819833515315395" lon="4.762165663771965"><ele>125.4</ele><time>2026-04-24T16:02:54.999Z</time></trkpt><trkpt lat="44.819809726090256" lon="4.762016771606241"><ele>124.0</ele><time>2026-04-24T16:02:56.999Z</time></trkpt><trkpt lat="44.81977919645786" lon="4.7618795992102"><ele>122.4</ele><time>2026-04-24T16:02:58.999Z</time></trkpt><trkpt lat="44.819752077201166" lon="4.7617177112265265"><ele>120.80000000000001</ele><time>2026-04-24T16:03:00.999Z</time></trkpt><trkpt lat="44.81971340064826" lon="4.761588271454728"><ele>119.19999999999999</ele><time>2026-04-24T16:03:02.999Z</time></trkpt><trkpt lat="44.81970090217368" lon="4.761471923238437"><ele>117.6</ele><time>2026-04-24T16:03:04.999Z</time></trkpt><trkpt lat="44.819673589953155" lon="4.761319163596556"><ele>116.0</ele><time>2026-04-24T16:03:06.999Z</time></trkpt><trkpt lat="44.819647489382604" lon="4.7611849140101725"><ele>116.0</ele><time>2026-04-24T16:03:08.999Z</time></trkpt><trkpt lat="44.819626527633886" lon="4.761046171955916"><ele>116.0</ele><time>2026-04-24T16:03:10.999Z</time></trkpt><trkpt lat="44.81960742639583" lon="4.760928480357157"><ele>116.0</ele><time>2026-04-24T16:03:12.999Z</time></trkpt><trkpt lat="44.819602548587994" lon="4.760785577790846"><ele>116.0</ele><time>2026-04-24T16:03:15.999Z</time></trkpt><trkpt lat="44.8196062800657" lon="4.760640974583745"><ele>116.0</ele><time>2026-04-24T16:03:17.999Z</time></trkpt><trkpt lat="44.81959760847328" lon="4.760508229886878"><ele>114.8</ele><time>2026-04-24T16:03:19.999Z</time></trkpt><trkpt lat="44.81960478102339" lon="4.760360014284368"><ele>113.6</ele><time>2026-04-24T16:03:21.999Z</time></trkpt><trkpt lat="44.81959493158826" lon="4.760202530718531"><ele>112.4</ele><time>2026-04-24T16:03:23.999Z</time></trkpt><trkpt lat="44.81958887378094" lon="4.760055679488481"><ele>111.2</ele><time>2026-04-24T16:03:25.999Z</time></trkpt><trkpt lat="44.81958752670698" lon="4.75990153845999"><ele>110.0</ele><time>2026-04-24T16:03:27.999Z</time></trkpt><trkpt lat="44.819584378830086" lon="4.759746744704737"><ele>110.0</ele><time>2026-04-24T16:03:29.999Z</time></trkpt><trkpt lat="44.819574422462324" lon="4.759596857718643"><ele>110.0</ele><time>2026-04-24T16:03:31.999Z</time></trkpt><trkpt lat="44.81956018530562" lon="4.759455262460419"><ele>110.0</ele><time>2026-04-24T16:03:33.999Z</time></trkpt><trkpt lat="44.81954291936239" lon="4.759308984047234"><ele>110.0</ele><time>2026-04-24T16:03:35.999Z</time></trkpt><trkpt lat="44.8195108295227" lon="4.759162507592943"><ele>110.0</ele><time>2026-04-24T16:03:37.999Z</time></trkpt><trkpt lat="44.819464743334116" lon="4.759012163189606"><ele>109.4</ele><time>2026-04-24T16:03:39.999Z</time></trkpt><trkpt lat="44.81942955810779" lon="4.758871750188734"><ele>108.8</ele><time>2026-04-24T16:03:41.999Z</time></trkpt><trkpt lat="44.81939553825348" lon="4.758736019774708"><ele>108.19999999999999</ele><time>2026-04-24T16:03:43.999Z</time></trkpt><trkpt lat="44.81935642745323" lon="4.758581133801342"><ele>107.6</ele><time>2026-04-24T16:03:45.999Z</time></trkpt><trkpt lat="44.81933947104067" lon="4.758439139993709"><ele>107.0</ele><time>2026-04-24T16:03:47.999Z</time></trkpt><trkpt lat="44.81930053262742" lon="4.758278898233841"><ele>112.8</ele><time>2026-04-24T16:03:49.999Z</time></trkpt><trkpt lat="44.81927575592836" lon="4.758115213230911"><ele>118.6</ele><time>2026-04-24T16:03:51.999Z</time></trkpt><trkpt lat="44.81926376658261" lon="4.75802709184401"><ele>124.39999999999999</ele><time>2026-04-24T16:03:52.999Z</time></trkpt><trkpt lat="44.8192563573031" lon="4.757862622548435"><ele>130.2</ele><time>2026-04-24T16:03:55Z</time></trkpt><trkpt lat="44.819252300379326" lon="4.757701091980817"><ele>136.0</ele><time>2026-04-24T16:03:56.999Z</time></trkpt><trkpt lat="44.81926638508884" lon="4.757539060850463"><ele>136.0</ele><time>2026-04-24T16:03:58.999Z</time></trkpt><trkpt lat="44.819255254217985" lon="4.757383807015127"><ele>136.0</ele><time>2026-04-24T16:04:00.999Z</time></trkpt><trkpt lat="44.81924680673261" lon="4.757246917830838"><ele>136.0</ele><time>2026-04-24T16:04:02.999Z</time></trkpt><trkpt lat="44.819248337859825" lon="4.757088314924677"><ele>136.0</ele><time>2026-04-24T16:04:04.999Z</time></trkpt><trkpt lat="44.81925111250831" lon="4.75693472619841"><ele>136.0</ele><time>2026-04-24T16:04:06.999Z</time></trkpt><trkpt lat="44.81923983802226" lon="4.756782308355881"><ele>135.6</ele><time>2026-04-24T16:04:08.999Z</time></trkpt><trkpt lat="44.81922571300478" lon="4.756636529241433"><ele>135.2</ele><time>2026-04-24T16:04:10.999Z</time></trkpt><trkpt lat="44.819207599313984" lon="4.756481430316246"><ele>134.8</ele><time>2026-04-24T16:04:12.999Z</time></trkpt><trkpt lat="44.81918256763203" lon="4.756340449307568"><ele>134.4</ele><time>2026-04-24T16:04:14.999Z</time></trkpt><trkpt lat="44.81918015103624" lon="4.756226511556328"><ele>134.0</ele><time>2026-04-24T16:04:16.999Z</time></trkpt><trkpt lat="44.81916920000648" lon="4.756099154892794"><ele>132.6</ele><time>2026-04-24T16:04:18.999Z</time></trkpt><trkpt lat="44.81914448737693" lon="4.755963025743862"><ele>131.2</ele><time>2026-04-24T16:04:20.999Z</time></trkpt><trkpt lat="44.81912872558137" lon="4.75582386203284"><ele>129.79999999999998</ele><time>2026-04-24T16:04:22.999Z</time></trkpt><trkpt lat="44.81908274742514" lon="4.75567944603735"><ele>128.4</ele><time>2026-04-24T16:04:24.999Z</time></trkpt><trkpt lat="44.81905065669655" lon="4.755526554064371"><ele>127.0</ele><time>2026-04-24T16:04:26.999Z</time></trkpt><trkpt lat="44.819016078493625" lon="4.755382799365475"><ele>127.0</ele><time>2026-04-24T16:04:28.999Z</time></trkpt><trkpt lat="44.818969962750245" lon="4.755251152089962"><ele>126.99999999999999</ele><time>2026-04-24T16:04:30.999Z</time></trkpt><trkpt lat="44.8189515608085" lon="4.755166108338882"><ele>126.99999999999999</ele><time>2026-04-24T16:04:31.999Z</time></trkpt><trkpt lat="44.81891060015678" lon="4.7550064694539875"><ele>127.0</ele><time>2026-04-24T16:04:33.999Z</time></trkpt><trkpt lat="44.81888161898429" lon="4.754868567482152"><ele>127.0</ele><time>2026-04-24T16:04:35.999Z</time></trkpt><trkpt lat="44.8188539782816" lon="4.754728726345568"><ele>125.0</ele><time>2026-04-24T16:04:37.999Z</time></trkpt><trkpt lat="44.818834312185736" lon="4.754591278069245"><ele>122.99999999999999</ele><time>2026-04-24T16:04:39.999Z</time></trkpt><trkpt lat="44.81879624516619" lon="4.754451369927713"><ele>120.99999999999999</ele><time>2026-04-24T16:04:41.999Z</time></trkpt><trkpt lat="44.81875669335059" lon="4.754336260383909"><ele>119.0</ele><time>2026-04-24T16:04:43.999Z</time></trkpt><trkpt lat="44.81868792490913" lon="4.754200115906606"><ele>117.0</ele><time>2026-04-24T16:04:45.999Z</time></trkpt><trkpt lat="44.818613547150555" lon="4.75407068851532"><ele>118.6</ele><time>2026-04-24T16:04:47.999Z</time></trkpt><trkpt lat="44.81854860178123" lon="4.753943975779958"><ele>120.19999999999999</ele><time>2026-04-24T16:04:49.999Z</time></trkpt><trkpt lat="44.81849696322336" lon="4.7538211709501885"><ele>121.8</ele><time>2026-04-24T16:04:51.999Z</time></trkpt><trkpt lat="44.81843773985274" lon="4.753684288674698"><ele>123.4</ele><time>2026-04-24T16:04:53.999Z</time></trkpt><trkpt lat="44.8183866737118" lon="4.753566068607278"><ele>125.0</ele><time>2026-04-24T16:04:55.999Z</time></trkpt><trkpt lat="44.81835082666268" lon="4.75345075622865"><ele>125.0</ele><time>2026-04-24T16:04:57.999Z</time></trkpt><trkpt lat="44.81831375684913" lon="4.753348162871005"><ele>125.0</ele><time>2026-04-24T16:04:59.999Z</time></trkpt><trkpt lat="44.818262346114366" lon="4.753231632860169"><ele>125.0</ele><time>2026-04-24T16:05:01.999Z</time></trkpt><trkpt lat="44.81820818842435" lon="4.753094093645275"><ele>125.0</ele><time>2026-04-24T16:05:03.999Z</time></trkpt><trkpt lat="44.818158633504936" lon="4.7529796699309985"><ele>125.0</ele><time>2026-04-24T16:05:05.999Z</time></trkpt><trkpt lat="44.818104931404186" lon="4.752872282241969"><ele>125.0</ele><time>2026-04-24T16:05:07.999Z</time></trkpt><trkpt lat="44.81805490222626" lon="4.7527682681474746"><ele>125.0</ele><time>2026-04-24T16:05:09.999Z</time></trkpt><trkpt lat="44.81799690511008" lon="4.752641231170184"><ele>125.0</ele><time>2026-04-24T16:05:11.999Z</time></trkpt><trkpt lat="44.81793811595675" lon="4.752509205336408"><ele>125.0</ele><time>2026-04-24T16:05:13.999Z</time></trkpt><trkpt lat="44.81786288459454" lon="4.752378311253759"><ele>125.0</ele><time>2026-04-24T16:05:15.999Z</time></trkpt><trkpt lat="44.81779744328081" lon="4.752245995751745"><ele>126.2</ele><time>2026-04-24T16:05:17.999Z</time></trkpt><trkpt lat="44.81775189322293" lon="4.752126215539355"><ele>127.4</ele><time>2026-04-24T16:05:19.999Z</time></trkpt><trkpt lat="44.817714335487175" lon="4.752050667685602"><ele>128.6</ele><time>2026-04-24T16:05:20.999Z</time></trkpt><trkpt lat="44.81765465450985" lon="4.7519424124587735"><ele>129.8</ele><time>2026-04-24T16:05:22.999Z</time></trkpt><trkpt lat="44.81759729068224" lon="4.751793244721326"><ele>131.0</ele><time>2026-04-24T16:05:24.999Z</time></trkpt><trkpt lat="44.81754989100226" lon="4.751669489757317"><ele>131.0</ele><time>2026-04-24T16:05:26.999Z</time></trkpt><trkpt lat="44.81748833753406" lon="4.751564044137918"><ele>131.0</ele><time>2026-04-24T16:05:28.999Z</time></trkpt><trkpt lat="44.817420265943646" lon="4.751470216464497"><ele>131.0</ele><time>2026-04-24T16:05:30.999Z</time></trkpt><trkpt lat="44.81734360478129" lon="4.751362244968258"><ele>131.0</ele><time>2026-04-24T16:05:32.999Z</time></trkpt><trkpt lat="44.817272654371074" lon="4.7512335370901715"><ele>131.0</ele><time>2026-04-24T16:05:34.999Z</time></trkpt><trkpt lat="44.81720362940786" lon="4.751128965472073"><ele>128.2</ele><time>2026-04-24T16:05:36.999Z</time></trkpt><trkpt lat="44.81714264705186" lon="4.751019598438796"><ele>125.39999999999999</ele><time>2026-04-24T16:05:38.999Z</time></trkpt><trkpt lat="44.81704897074425" lon="4.7509122045277685"><ele>122.6</ele><time>2026-04-24T16:05:40.999Z</time></trkpt><trkpt lat="44.81698581251657" lon="4.7507928898487135"><ele>119.8</ele><time>2026-04-24T16:05:42.999Z</time></trkpt><trkpt lat="44.81691648271888" lon="4.750685779310073"><ele>117.0</ele><time>2026-04-24T16:05:44.999Z</time></trkpt><trkpt lat="44.8168714023025" lon="4.750572160042593"><ele>117.0</ele><time>2026-04-24T16:05:46.999Z</time></trkpt><trkpt lat="44.816843656477324" lon="4.750482017107667"><ele>116.99999999999999</ele><time>2026-04-24T16:05:48.999Z</time></trkpt><trkpt lat="44.816798444913" lon="4.750368048864014"><ele>116.99999999999999</ele><time>2026-04-24T16:05:50.999Z</time></trkpt><trkpt lat="44.816754499906075" lon="4.750221400697671"><ele>117.0</ele><time>2026-04-24T16:05:52.999Z</time></trkpt><trkpt lat="44.81671656855936" lon="4.750097629518376"><ele>117.0</ele><time>2026-04-24T16:05:54.999Z</time></trkpt><trkpt lat="44.81670230008507" lon="4.749953614904439"><ele>119.6</ele><time>2026-04-24T16:05:56.999Z</time></trkpt><trkpt lat="44.81668246057014" lon="4.749807924601822"><ele>122.19999999999999</ele><time>2026-04-24T16:05:58.999Z</time></trkpt><trkpt lat="44.81666236393099" lon="4.749652612469551"><ele>124.8</ele><time>2026-04-24T16:06:00.999Z</time></trkpt><trkpt lat="44.816652226249" lon="4.749564791245343"><ele>127.4</ele><time>2026-04-24T16:06:01.999Z</time></trkpt><trkpt lat="44.81663389657898" lon="4.74947495195311"><ele>130.0</ele><time>2026-04-24T16:06:02.999Z</time></trkpt><trkpt lat="44.816625255676364" lon="4.749323027828745"><ele>130.0</ele><time>2026-04-24T16:06:04.999Z</time></trkpt><trkpt lat="44.816619806022075" lon="4.749190747722205"><ele>130.0</ele><time>2026-04-24T16:06:06.998Z</time></trkpt><trkpt lat="44.81660765307095" lon="4.749041253590301"><ele>130.0</ele><time>2026-04-24T16:06:08.999Z</time></trkpt><trkpt lat="44.81659624273943" lon="4.74888615319397"><ele>130.0</ele><time>2026-04-24T16:06:10.999Z</time></trkpt><trkpt lat="44.81657874294769" lon="4.748738853473177"><ele>130.0</ele><time>2026-04-24T16:06:12.999Z</time></trkpt><trkpt lat="44.816561002209134" lon="4.748650645511044"><ele>129.0</ele><time>2026-04-24T16:06:13.999Z</time></trkpt><trkpt lat="44.816549633500046" lon="4.7484912637784085"><ele>128.0</ele><time>2026-04-24T16:06:15.999Z</time></trkpt><trkpt lat="44.816526825185605" lon="4.7483396743100945"><ele>127.0</ele><time>2026-04-24T16:06:17.999Z</time></trkpt><trkpt lat="44.816498242652635" lon="4.748197012948325"><ele>126.0</ele><time>2026-04-24T16:06:19.998Z</time></trkpt><trkpt lat="44.81648623346075" lon="4.748054192932903"><ele>125.0</ele><time>2026-04-24T16:06:21.998Z</time></trkpt><trkpt lat="44.81644233499384" lon="4.747920265565003"><ele>125.0</ele><time>2026-04-24T16:06:23.998Z</time></trkpt><trkpt lat="44.81640542972004" lon="4.747782839445408"><ele>125.0</ele><time>2026-04-24T16:06:25.998Z</time></trkpt><trkpt lat="44.816356434087915" lon="4.747647783393131"><ele>125.0</ele><time>2026-04-24T16:06:27.998Z</time></trkpt><trkpt lat="44.81632115062376" lon="4.747508698185102"><ele>125.0</ele><time>2026-04-24T16:06:29.998Z</time></trkpt><trkpt lat="44.81628312200703" lon="4.747388979866304"><ele>125.0</ele><time>2026-04-24T16:06:31.998Z</time></trkpt><trkpt lat="44.81624919829001" lon="4.747252356783974"><ele>123.2</ele><time>2026-04-24T16:06:33.998Z</time></trkpt><trkpt lat="44.8162181003808" lon="4.74712859097144"><ele>121.4</ele><time>2026-04-24T16:06:35.998Z</time></trkpt><trkpt lat="44.816185139297865" lon="4.746995574123368"><ele>119.6</ele><time>2026-04-24T16:06:37.998Z</time></trkpt><trkpt lat="44.816166329640225" lon="4.746865882236356"><ele>117.8</ele><time>2026-04-24T16:06:39.998Z</time></trkpt><trkpt lat="44.816160751775925" lon="4.746749280171419"><ele>116.0</ele><time>2026-04-24T16:06:41.998Z</time></trkpt><trkpt lat="44.81614029143402" lon="4.74661428795897"><ele>116.0</ele><time>2026-04-24T16:06:43.998Z</time></trkpt><trkpt lat="44.81611743428691" lon="4.746478836976602"><ele>116.0</ele><time>2026-04-24T16:06:45.998Z</time></trkpt><trkpt lat="44.81611848572852" lon="4.746329409914658"><ele>116.0</ele><time>2026-04-24T16:06:47.998Z</time></trkpt><trkpt lat="44.81612144566691" lon="4.74618015763115"><ele>116.0</ele><time>2026-04-24T16:06:49.998Z</time></trkpt><trkpt lat="44.8161393934359" lon="4.74602996770426"><ele>116.0</ele><time>2026-04-24T16:06:51.998Z</time></trkpt><trkpt lat="44.81613783163022" lon="4.74588785690549"><ele>115.8</ele><time>2026-04-24T16:06:53.998Z</time></trkpt><trkpt lat="44.81616638027355" lon="4.7457309417563165"><ele>115.6</ele><time>2026-04-24T16:06:55.998Z</time></trkpt><trkpt lat="44.81618883537725" lon="4.745571465934999"><ele>115.4</ele><time>2026-04-24T16:06:57.998Z</time></trkpt><trkpt lat="44.81620293527343" lon="4.745427032361433"><ele>115.2</ele><time>2026-04-24T16:06:59.998Z</time></trkpt><trkpt lat="44.81622829892491" lon="4.745286984428093"><ele>115.0</ele><time>2026-04-24T16:07:01.998Z</time></trkpt><trkpt lat="44.81623073255781" lon="4.745132944928649"><ele>116.0</ele><time>2026-04-24T16:07:03.998Z</time></trkpt><trkpt lat="44.81626791684315" lon="4.74497393754725"><ele>117.0</ele><time>2026-04-24T16:07:05.998Z</time></trkpt><trkpt lat="44.8162927887469" lon="4.744831353948988"><ele>118.0</ele><time>2026-04-24T16:07:07.998Z</time></trkpt><trkpt lat="44.81630839916948" lon="4.7446875063826335"><ele>119.0</ele><time>2026-04-24T16:07:09.998Z</time></trkpt><trkpt lat="44.81632769716286" lon="4.744526346148"><ele>120.0</ele><time>2026-04-24T16:07:11.998Z</time></trkpt><trkpt lat="44.816356820590165" lon="4.744371135073869"><ele>121.5</ele><time>2026-04-24T16:07:13.998Z</time></trkpt><trkpt lat="44.81638041984584" lon="4.744198723259304"><ele>123.0</ele><time>2026-04-24T16:07:15.998Z</time></trkpt><trkpt lat="44.8164196527856" lon="4.744060178349612"><ele>124.5</ele><time>2026-04-24T16:07:17.998Z</time></trkpt><trkpt lat="44.81644052460051" lon="4.743891171685359"><ele>126.0</ele><time>2026-04-24T16:07:19.998Z</time></trkpt><trkpt lat="44.81644000340941" lon="4.743727352526902"><ele>126.0</ele><time>2026-04-24T16:07:21.998Z</time></trkpt><trkpt lat="44.816459473339556" lon="4.743568377555207"><ele>126.0</ele><time>2026-04-24T16:07:23.998Z</time></trkpt><trkpt lat="44.816445530023614" lon="4.743419039707699"><ele>126.0</ele><time>2026-04-24T16:07:25.998Z</time></trkpt><trkpt lat="44.81645325298072" lon="4.743251385645635"><ele>126.0</ele><time>2026-04-24T16:07:27.998Z</time></trkpt><trkpt lat="44.81645107943929" lon="4.743092247661831"><ele>126.4</ele><time>2026-04-24T16:07:29.998Z</time></trkpt><trkpt lat="44.81646236293699" lon="4.742944864212344"><ele>126.8</ele><time>2026-04-24T16:07:31.998Z</time></trkpt><trkpt lat="44.816449794705015" lon="4.742766191886043"><ele>127.20000000000002</ele><time>2026-04-24T16:07:33.998Z</time></trkpt><trkpt lat="44.81645277404086" lon="4.742600951216636"><ele>127.60000000000001</ele><time>2026-04-24T16:07:35.998Z</time></trkpt><trkpt lat="44.8164405386643" lon="4.742502244554883"><ele>128.0</ele><time>2026-04-24T16:07:36.998Z</time></trkpt><trkpt lat="44.8164371132964" lon="4.74233587842358"><ele>128.0</ele><time>2026-04-24T16:07:38.998Z</time></trkpt><trkpt lat="44.81643954286777" lon="4.742158843050169"><ele>128.0</ele><time>2026-04-24T16:07:40.998Z</time></trkpt><trkpt lat="44.8164513712084" lon="4.742059966262914"><ele>128.0</ele><time>2026-04-24T16:07:41.998Z</time></trkpt><trkpt lat="44.81645357446454" lon="4.741957475437393"><ele>128.0</ele><time>2026-04-24T16:07:42.998Z</time></trkpt><trkpt lat="44.81645091612505" lon="4.741776605775138"><ele>128.0</ele><time>2026-04-24T16:07:44.998Z</time></trkpt><trkpt lat="44.81646472417117" lon="4.741685404057586"><ele>127.99999999999999</ele><time>2026-04-24T16:07:45.998Z</time></trkpt><trkpt lat="44.816481702259466" lon="4.741502643147724"><ele>128.0</ele><time>2026-04-24T16:07:47.998Z</time></trkpt><trkpt lat="44.81650314479233" lon="4.74141521333473"><ele>128.0</ele><time>2026-04-24T16:07:48.998Z</time></trkpt><trkpt lat="44.816539724180025" lon="4.741328816140168"><ele>128.0</ele><time>2026-04-24T16:07:49.998Z</time></trkpt><trkpt lat="44.81656686651468" lon="4.741225676620489"><ele>127.99999999999999</ele><time>2026-04-24T16:07:50.998Z</time></trkpt><trkpt lat="44.816591718595454" lon="4.741133799766378"><ele>128.0</ele><time>2026-04-24T16:07:51.998Z</time></trkpt><trkpt lat="44.81661370287446" lon="4.741046628184158"><ele>129.14285714285714</ele><time>2026-04-24T16:07:52.998Z</time></trkpt><trkpt lat="44.816646529649375" lon="4.740952094125477"><ele>130.28571428571428</ele><time>2026-04-24T16:07:53.998Z</time></trkpt><trkpt lat="44.816667615061235" lon="4.740865378097753"><ele>131.42857142857142</ele><time>2026-04-24T16:07:54.998Z</time></trkpt><trkpt lat="44.816692678474546" lon="4.740768123591779"><ele>132.57142857142856</ele><time>2026-04-24T16:07:55.998Z</time></trkpt><trkpt lat="44.816723560719105" lon="4.740689470746181"><ele>133.71428571428572</ele><time>2026-04-24T16:07:56.998Z</time></trkpt><trkpt lat="44.81675214218286" lon="4.740600219329665"><ele>134.85714285714283</ele><time>2026-04-24T16:07:57.998Z</time></trkpt><trkpt lat="44.81678160814691" lon="4.740512213378566"><ele>136.0</ele><time>2026-04-24T16:07:58.998Z</time></trkpt><trkpt lat="44.81680633304357" lon="4.740420045634228"><ele>133.66666666666669</ele><time>2026-04-24T16:07:59.998Z</time></trkpt><trkpt lat="44.816843220645616" lon="4.740341385914247"><ele>131.33333333333334</ele><time>2026-04-24T16:08:00.998Z</time></trkpt><trkpt lat="44.81686305471459" lon="4.740254776453391"><ele>129.0</ele><time>2026-04-24T16:08:01.998Z</time></trkpt><trkpt lat="44.816920480785896" lon="4.74013065776174"><ele>126.66666666666666</ele><time>2026-04-24T16:08:03.998Z</time></trkpt><trkpt lat="44.817000217713485" lon="4.740018282484836"><ele>124.33333333333333</ele><time>2026-04-24T16:08:05.999Z</time></trkpt><trkpt lat="44.81705099704166" lon="4.739961264422302"><ele>122.0</ele><time>2026-04-24T16:08:06.999Z</time></trkpt><trkpt lat="44.817157259870136" lon="4.7398623389158425"><ele>122.0</ele><time>2026-04-24T16:08:08.999Z</time></trkpt><trkpt lat="44.81725372826462" lon="4.73974567277781"><ele>121.99999999999999</ele><time>2026-04-24T16:08:10.999Z</time></trkpt><trkpt lat="44.81733750601769" lon="4.739619072009336"><ele>121.99999999999999</ele><time>2026-04-24T16:08:12.999Z</time></trkpt><trkpt lat="44.81738443717979" lon="4.739553136942667"><ele>122.0</ele><time>2026-04-24T16:08:13.999Z</time></trkpt><trkpt lat="44.81743678609723" lon="4.739479818482744"><ele>122.0</ele><time>2026-04-24T16:08:14.998Z</time></trkpt><trkpt lat="44.81748782240258" lon="4.739420393342967"><ele>121.39999999999999</ele><time>2026-04-24T16:08:15.998Z</time></trkpt><trkpt lat="44.81757376407786" lon="4.739276259430489"><ele>120.79999999999998</ele><time>2026-04-24T16:08:17.999Z</time></trkpt><trkpt lat="44.81763436002138" lon="4.739139011951981"><ele>120.2</ele><time>2026-04-24T16:08:19.999Z</time></trkpt><trkpt lat="44.81767441546249" lon="4.739065420507601"><ele>119.6</ele><time>2026-04-24T16:08:20.999Z</time></trkpt><trkpt lat="44.8177140345818" lon="4.738914666101934"><ele>119.0</ele><time>2026-04-24T16:08:22.999Z</time></trkpt><trkpt lat="44.817741632938265" lon="4.738832521322395"><ele>119.0</ele><time>2026-04-24T16:08:23.999Z</time></trkpt><trkpt lat="44.817767841744995" lon="4.738658451397935"><ele>119.0</ele><time>2026-04-24T16:08:25.999Z</time></trkpt><trkpt lat="44.817768498208004" lon="4.738487153420526"><ele>119.0</ele><time>2026-04-24T16:08:27.999Z</time></trkpt><trkpt lat="44.817770317877276" lon="4.738397653238278"><ele>119.0</ele><time>2026-04-24T16:08:28.999Z</time></trkpt><trkpt lat="44.81775643014838" lon="4.738243402836818"><ele>119.0</ele><time>2026-04-24T16:08:30.999Z</time></trkpt><trkpt lat="44.81773208622802" lon="4.738090666463938"><ele>119.0</ele><time>2026-04-24T16:08:32.999Z</time></trkpt><trkpt lat="44.81770502136814" lon="4.737946041393281"><ele>119.0</ele><time>2026-04-24T16:08:34.999Z</time></trkpt><trkpt lat="44.81769218840435" lon="4.737802409350386"><ele>119.0</ele><time>2026-04-24T16:08:36.999Z</time></trkpt><trkpt lat="44.81766945775157" lon="4.737655822539333"><ele>119.0</ele><time>2026-04-24T16:08:38.999Z</time></trkpt><trkpt lat="44.81765227660926" lon="4.73752334916042"><ele>119.0</ele><time>2026-04-24T16:08:40.999Z</time></trkpt><trkpt lat="44.81762992972139" lon="4.737353518182971"><ele>121.6</ele><time>2026-04-24T16:08:42.999Z</time></trkpt><trkpt lat="44.817621020241916" lon="4.73726310693542"><ele>124.2</ele><time>2026-04-24T16:08:43.999Z</time></trkpt><trkpt lat="44.817610815808564" lon="4.7371028995258095"><ele>126.79999999999998</ele><time>2026-04-24T16:08:45.999Z</time></trkpt><trkpt lat="44.81760991990108" lon="4.736947872192417"><ele>129.4</ele><time>2026-04-24T16:08:47.999Z</time></trkpt><trkpt lat="44.81761526621364" lon="4.736805800541773"><ele>132.0</ele><time>2026-04-24T16:08:49.999Z</time></trkpt><trkpt lat="44.817632277965664" lon="4.736651897437109"><ele>133.0</ele><time>2026-04-24T16:08:51.999Z</time></trkpt><trkpt lat="44.81764754000955" lon="4.736486124255391"><ele>134.0</ele><time>2026-04-24T16:08:53.999Z</time></trkpt><trkpt lat="44.81767616964327" lon="4.736339464862193"><ele>135.0</ele><time>2026-04-24T16:08:55.999Z</time></trkpt><trkpt lat="44.81769899071914" lon="4.736193957041746"><ele>136.0</ele><time>2026-04-24T16:08:57.999Z</time></trkpt><trkpt lat="44.817732227720576" lon="4.736045098943056"><ele>137.0</ele><time>2026-04-24T16:08:59.999Z</time></trkpt><trkpt lat="44.81776546930505" lon="4.735904801562411"><ele>134.16666666666666</ele><time>2026-04-24T16:09:01.999Z</time></trkpt><trkpt lat="44.8177896295718" lon="4.735778061671927"><ele>131.33333333333331</ele><time>2026-04-24T16:09:03.999Z</time></trkpt><trkpt lat="44.817827809076036" lon="4.7356752718140385"><ele>128.5</ele><time>2026-04-24T16:09:05.999Z</time></trkpt><trkpt lat="44.81783997023445" lon="4.735587052856919"><ele>125.66666666666666</ele><time>2026-04-24T16:09:08.999Z</time></trkpt><trkpt lat="44.817882211475116" lon="4.7354793495341925"><ele>122.83333333333333</ele><time>2026-04-24T16:09:11.999Z</time></trkpt><trkpt lat="44.817909363727956" lon="4.735390885491265"><ele>120.0</ele><time>2026-04-24T16:09:13.999Z</time></trkpt><trkpt lat="44.81794127358577" lon="4.735264207159856"><ele>120.4</ele><time>2026-04-24T16:09:15.999Z</time></trkpt><trkpt lat="44.81795959110689" lon="4.735132207863483"><ele>120.8</ele><time>2026-04-24T16:09:17.999Z</time></trkpt><trkpt lat="44.817986413946365" lon="4.735000548089536"><ele>121.19999999999999</ele><time>2026-04-24T16:09:19.999Z</time></trkpt><trkpt lat="44.81800626152627" lon="4.734867907045404"><ele>121.6</ele><time>2026-04-24T16:09:21.999Z</time></trkpt><trkpt lat="44.81802190201296" lon="4.734727250280582"><ele>122.0</ele><time>2026-04-24T16:09:23.999Z</time></trkpt><trkpt lat="44.81802763245651" lon="4.734599099479323"><ele>122.0</ele><time>2026-04-24T16:09:25.999Z</time></trkpt><trkpt lat="44.818026542965654" lon="4.734463885087145"><ele>121.99999999999999</ele><time>2026-04-24T16:09:27.999Z</time></trkpt><trkpt lat="44.818028135304665" lon="4.734304564270893"><ele>121.99999999999999</ele><time>2026-04-24T16:09:29.998Z</time></trkpt><trkpt lat="44.81801836977242" lon="4.734166135195098"><ele>122.0</ele><time>2026-04-24T16:09:31.998Z</time></trkpt><trkpt lat="44.81800548297288" lon="4.73402306379626"><ele>122.0</ele><time>2026-04-24T16:09:33.998Z</time></trkpt><trkpt lat="44.818000098161136" lon="4.73389338725264"><ele>121.99999999999999</ele><time>2026-04-24T16:09:35.998Z</time></trkpt><trkpt lat="44.81799575774794" lon="4.733786130002157"><ele>122.0</ele><time>2026-04-24T16:09:37.998Z</time></trkpt><trkpt lat="44.81797686676876" lon="4.733667815606235"><ele>122.0</ele><time>2026-04-24T16:10:41.998Z</time></trkpt><trkpt lat="44.81797132349462" lon="4.733569693141115"><ele>122.0</ele><time>2026-04-24T16:10:44.998Z</time></trkpt><trkpt lat="44.81796448583568" lon="4.733464491502803"><ele>121.99999999999999</ele><time>2026-04-24T16:10:46.998Z</time></trkpt><trkpt lat="44.817961374375635" lon="4.73334569642504"><ele>122.0</ele><time>2026-04-24T16:10:48.998Z</time></trkpt><trkpt lat="44.817953531718416" lon="4.733226237495491"><ele>122.6</ele><time>2026-04-24T16:10:50.998Z</time></trkpt><trkpt lat="44.817948688259776" lon="4.733105749205373"><ele>123.19999999999999</ele><time>2026-04-24T16:10:52.998Z</time></trkpt><trkpt lat="44.81795163401338" lon="4.7329781822884796"><ele>123.8</ele><time>2026-04-24T16:10:54.998Z</time></trkpt><trkpt lat="44.81794857122619" lon="4.73285151015145"><ele>124.4</ele><time>2026-04-24T16:10:56.998Z</time></trkpt><trkpt lat="44.817945376984795" lon="4.732699636134335"><ele>125.0</ele><time>2026-04-24T16:10:58.998Z</time></trkpt><trkpt lat="44.8179360735053" lon="4.732559571275112"><ele>125.0</ele><time>2026-04-24T16:11:00.998Z</time></trkpt><trkpt lat="44.817927281281264" lon="4.732425840706646"><ele>125.0</ele><time>2026-04-24T16:11:02.998Z</time></trkpt><trkpt lat="44.8179162307423" lon="4.732278639524712"><ele>125.0</ele><time>2026-04-24T16:11:04.998Z</time></trkpt><trkpt lat="44.81789796725211" lon="4.732126367361313"><ele>125.0</ele><time>2026-04-24T16:11:06.998Z</time></trkpt><trkpt lat="44.8178858726245" lon="4.73197471143977"><ele>125.0</ele><time>2026-04-24T16:11:08.998Z</time></trkpt><trkpt lat="44.81789099565271" lon="4.731827779281382"><ele>125.2</ele><time>2026-04-24T16:11:10.998Z</time></trkpt><trkpt lat="44.817890412963244" lon="4.731659399288828"><ele>125.4</ele><time>2026-04-24T16:11:12.998Z</time></trkpt><trkpt lat="44.81787883269405" lon="4.731567915321309"><ele>125.6</ele><time>2026-04-24T16:11:13.998Z</time></trkpt><trkpt lat="44.81787863346357" lon="4.7314148147669135"><ele>125.8</ele><time>2026-04-24T16:11:15.998Z</time></trkpt><trkpt lat="44.81788242464401" lon="4.731269851455342"><ele>126.0</ele><time>2026-04-24T16:11:17.998Z</time></trkpt><trkpt lat="44.81785857114378" lon="4.73112045246189"><ele>125.5</ele><time>2026-04-24T16:11:19.998Z</time></trkpt><trkpt lat="44.81784285002603" lon="4.7309618507403775"><ele>125.0</ele><time>2026-04-24T16:11:21.998Z</time></trkpt><trkpt lat="44.81783479837243" lon="4.7307964415332036"><ele>124.5</ele><time>2026-04-24T16:11:23.998Z</time></trkpt><trkpt lat="44.81782467492693" lon="4.730642255125298"><ele>124.0</ele><time>2026-04-24T16:11:25.998Z</time></trkpt><trkpt lat="44.81781955922016" lon="4.73048766247799"><ele>124.0</ele><time>2026-04-24T16:11:27.998Z</time></trkpt><trkpt lat="44.817801019484506" lon="4.730400542540216"><ele>124.0</ele><time>2026-04-24T16:11:28.998Z</time></trkpt><trkpt lat="44.81780001514282" lon="4.730232834075549"><ele>124.0</ele><time>2026-04-24T16:11:30.998Z</time></trkpt><trkpt lat="44.81778792529435" lon="4.7300757076408875"><ele>124.0</ele><time>2026-04-24T16:11:32.998Z</time></trkpt><trkpt lat="44.817765196256026" lon="4.729924069607993"><ele>124.0</ele><time>2026-04-24T16:11:34.998Z</time></trkpt><trkpt lat="44.81775892675883" lon="4.729781716443121"><ele>123.0</ele><time>2026-04-24T16:11:36.998Z</time></trkpt><trkpt lat="44.8177401643709" lon="4.729613196408476"><ele>122.0</ele><time>2026-04-24T16:11:38.998Z</time></trkpt><trkpt lat="44.81773616925301" lon="4.729517178243954"><ele>121.0</ele><time>2026-04-24T16:11:39.998Z</time></trkpt><trkpt lat="44.81771755360911" lon="4.729355764938492"><ele>120.0</ele><time>2026-04-24T16:11:41.998Z</time></trkpt><trkpt lat="44.81772217234754" lon="4.7292123992051724"><ele>119.0</ele><time>2026-04-24T16:11:43.998Z</time></trkpt><trkpt lat="44.81772273897125" lon="4.729046909817638"><ele>118.6</ele><time>2026-04-24T16:11:45.998Z</time></trkpt><trkpt lat="44.817698512372" lon="4.728899054653608"><ele>118.2</ele><time>2026-04-24T16:11:47.998Z</time></trkpt><trkpt lat="44.81768167795447" lon="4.728765455995092"><ele>117.79999999999998</ele><time>2026-04-24T16:11:49.998Z</time></trkpt><trkpt lat="44.81765383338322" lon="4.728605446111061"><ele>117.39999999999999</ele><time>2026-04-24T16:11:51.998Z</time></trkpt><trkpt lat="44.8176231302246" lon="4.728523589655096"><ele>117.0</ele><time>2026-04-24T16:11:52.998Z</time></trkpt><trkpt lat="44.817572995090764" lon="4.728392203262569"><ele>121.39999999999999</ele><time>2026-04-24T16:11:54.998Z</time></trkpt><trkpt lat="44.817550866103595" lon="4.728284052512305"><ele>125.79999999999998</ele><time>2026-04-24T16:11:56.998Z</time></trkpt><trkpt lat="44.81751635453385" lon="4.728147006057992"><ele>130.2</ele><time>2026-04-24T16:11:58.998Z</time></trkpt><trkpt lat="44.81747317715775" lon="4.728031418735535"><ele>134.6</ele><time>2026-04-24T16:12:00.998Z</time></trkpt><trkpt lat="44.81743690732393" lon="4.7279364607945995"><ele>139.0</ele><time>2026-04-24T16:12:02.998Z</time></trkpt><trkpt lat="44.81738600993539" lon="4.727799881628407"><ele>136.0</ele><time>2026-04-24T16:12:04.998Z</time></trkpt><trkpt lat="44.817325686305225" lon="4.727694483527843"><ele>133.0</ele><time>2026-04-24T16:12:06.998Z</time></trkpt><trkpt lat="44.817282088687705" lon="4.727630024475855"><ele>130.0</ele><time>2026-04-24T16:12:07.998Z</time></trkpt><trkpt lat="44.81722288984869" lon="4.727581056772277"><ele>127.0</ele><time>2026-04-24T16:12:08.998Z</time></trkpt><trkpt lat="44.81711979047875" lon="4.7274750765558915"><ele>124.0</ele><time>2026-04-24T16:12:10.998Z</time></trkpt><trkpt lat="44.817026626178205" lon="4.727389687635584"><ele>124.0</ele><time>2026-04-24T16:12:12.998Z</time></trkpt><trkpt lat="44.81697169257129" lon="4.7273359047450185"><ele>124.0</ele><time>2026-04-24T16:12:13.998Z</time></trkpt><trkpt lat="44.8168731668604" lon="4.727231365026661"><ele>124.0</ele><time>2026-04-24T16:12:15.998Z</time></trkpt><trkpt lat="44.816819769865376" lon="4.72717731060542"><ele>124.0</ele><time>2026-04-24T16:12:16.998Z</time></trkpt><trkpt lat="44.816723171946286" lon="4.727091879060999"><ele>124.0</ele><time>2026-04-24T16:12:18.999Z</time></trkpt><trkpt lat="44.81662667678257" lon="4.727016420022648"><ele>124.80000000000001</ele><time>2026-04-24T16:12:20.999Z</time></trkpt><trkpt lat="44.816530641498794" lon="4.726938946015813"><ele>125.60000000000001</ele><time>2026-04-24T16:12:22.999Z</time></trkpt><trkpt lat="44.816452477420775" lon="4.726846525735417"><ele>126.4</ele><time>2026-04-24T16:12:24.998Z</time></trkpt><trkpt lat="44.81637986057046" lon="4.726751910315586"><ele>127.2</ele><time>2026-04-24T16:12:26.998Z</time></trkpt><trkpt lat="44.816317443659756" lon="4.7266410402237975"><ele>128.0</ele><time>2026-04-24T16:12:28.999Z</time></trkpt><trkpt lat="44.816265539140126" lon="4.726522026159053"><ele>128.0</ele><time>2026-04-24T16:12:30.998Z</time></trkpt><trkpt lat="44.81622617083836" lon="4.726415107945971"><ele>128.0</ele><time>2026-04-24T16:12:32.998Z</time></trkpt><trkpt lat="44.81620573365475" lon="4.726311580959214"><ele>128.0</ele><time>2026-04-24T16:12:34.998Z</time></trkpt><trkpt lat="44.81619595132306" lon="4.72619356194713"><ele>128.0</ele><time>2026-04-24T16:12:36.998Z</time></trkpt><trkpt lat="44.81617863840598" lon="4.726059338296754"><ele>128.0</ele><time>2026-04-24T16:12:38.998Z</time></trkpt><trkpt lat="44.816145188018474" lon="4.725905516756025"><ele>125.60000000000001</ele><time>2026-04-24T16:12:40.998Z</time></trkpt><trkpt lat="44.816133354928965" lon="4.725763031598057"><ele>123.20000000000002</ele><time>2026-04-24T16:12:42.998Z</time></trkpt><trkpt lat="44.81610387060093" lon="4.7256247955606145"><ele>120.8</ele><time>2026-04-24T16:12:44.998Z</time></trkpt><trkpt lat="44.81609094761485" lon="4.725527451853068"><ele>118.4</ele><time>2026-04-24T16:12:45.998Z</time></trkpt><trkpt lat="44.81606987274482" lon="4.725371680479705"><ele>116.0</ele><time>2026-04-24T16:12:47.998Z</time></trkpt><trkpt lat="44.81604295202095" lon="4.725239348159894"><ele>115.6</ele><time>2026-04-24T16:12:49.998Z</time></trkpt><trkpt lat="44.816030164351105" lon="4.725092360750154"><ele>115.19999999999999</ele><time>2026-04-24T16:12:51.998Z</time></trkpt><trkpt lat="44.81602418985417" lon="4.724942193756632"><ele>114.80000000000001</ele><time>2026-04-24T16:12:53.998Z</time></trkpt><trkpt lat="44.816014699496314" lon="4.724801959073262"><ele>114.4</ele><time>2026-04-24T16:12:55.998Z</time></trkpt><trkpt lat="44.815986034661705" lon="4.724660603413617"><ele>114.0</ele><time>2026-04-24T16:12:57.998Z</time></trkpt><trkpt lat="44.81597370001913" lon="4.724517486349523"><ele>118.66666666666667</ele><time>2026-04-24T16:12:59.998Z</time></trkpt><trkpt lat="44.81596622292213" lon="4.724390490216454"><ele>123.33333333333334</ele><time>2026-04-24T16:13:01.998Z</time></trkpt><trkpt lat="44.815955037848035" lon="4.724270883032655"><ele>128.0</ele><time>2026-04-24T16:13:03.998Z</time></trkpt><trkpt lat="44.815937138319796" lon="4.7241308527274315"><ele>132.66666666666669</ele><time>2026-04-24T16:13:05.998Z</time></trkpt><trkpt lat="44.81592628179297" lon="4.724029306115564"><ele>137.33333333333334</ele><time>2026-04-24T16:13:07.998Z</time></trkpt><trkpt lat="44.81591225740797" lon="4.723914132155013"><ele>142.0</ele><time>2026-04-24T16:13:09.998Z</time></trkpt><trkpt lat="44.81590658430054" lon="4.723783982459479"><ele>142.0</ele><time>2026-04-24T16:13:11.998Z</time></trkpt><trkpt lat="44.81588187109419" lon="4.723640284131193"><ele>142.0</ele><time>2026-04-24T16:13:13.998Z</time></trkpt><trkpt lat="44.81586634236105" lon="4.723508239502646"><ele>142.0</ele><time>2026-04-24T16:13:15.998Z</time></trkpt><trkpt lat="44.81584764980532" lon="4.723373886271815"><ele>142.0</ele><time>2026-04-24T16:13:17.998Z</time></trkpt><trkpt lat="44.81584494710162" lon="4.72327860688933"><ele>142.0</ele><time>2026-04-24T16:13:19.998Z</time></trkpt><trkpt lat="44.81582159795886" lon="4.7231616868186"><ele>141.66666666666669</ele><time>2026-04-24T16:13:21.998Z</time></trkpt><trkpt lat="44.81579327565446" lon="4.723036576287187"><ele>141.33333333333334</ele><time>2026-04-24T16:13:23.998Z</time></trkpt><trkpt lat="44.81577230034931" lon="4.722914955656291"><ele>141.0</ele><time>2026-04-24T16:13:25.998Z</time></trkpt><trkpt lat="44.8157659851496" lon="4.722810287475946"><ele>140.66666666666666</ele><time>2026-04-24T16:13:27.998Z</time></trkpt><trkpt lat="44.81574834797008" lon="4.722693445974828"><ele>140.33333333333331</ele><time>2026-04-24T16:13:29.998Z</time></trkpt><trkpt lat="44.81573160534758" lon="4.722588169847861"><ele>140.0</ele><time>2026-04-24T16:13:31.998Z</time></trkpt><trkpt lat="44.815716713831954" lon="4.722455703058849"><ele>140.0</ele><time>2026-04-24T16:13:33.998Z</time></trkpt><trkpt lat="44.81571946842325" lon="4.722347134820375"><ele>140.0</ele><time>2026-04-24T16:13:35.998Z</time></trkpt><trkpt lat="44.81571191207545" lon="4.722215261138566"><ele>140.0</ele><time>2026-04-24T16:13:37.998Z</time></trkpt><trkpt lat="44.81571982515692" lon="4.722099976669222"><ele>140.0</ele><time>2026-04-24T16:13:39.998Z</time></trkpt><trkpt lat="44.81571750853451" lon="4.721967644165375"><ele>140.0</ele><time>2026-04-24T16:13:41.998Z</time></trkpt><trkpt lat="44.81570123506001" lon="4.721818758069063"><ele>140.0</ele><time>2026-04-24T16:13:43.998Z</time></trkpt><trkpt lat="44.815712269511096" lon="4.72167048904685"><ele>140.0</ele><time>2026-04-24T16:13:45.998Z</time></trkpt><trkpt lat="44.81572211331114" lon="4.72152657010377"><ele>140.0</ele><time>2026-04-24T16:13:47.998Z</time></trkpt><trkpt lat="44.815743233344705" lon="4.721369750948851"><ele>140.0</ele><time>2026-04-24T16:13:49.998Z</time></trkpt><trkpt lat="44.815769149741385" lon="4.721229850030518"><ele>140.0</ele><time>2026-04-24T16:13:51.998Z</time></trkpt><trkpt lat="44.81577949506639" lon="4.72108739713093"><ele>140.4</ele><time>2026-04-24T16:13:53.998Z</time></trkpt><trkpt lat="44.81579335374814" lon="4.7209459381308845"><ele>140.8</ele><time>2026-04-24T16:13:55.998Z</time></trkpt><trkpt lat="44.81582548162759" lon="4.720806334026965"><ele>141.2</ele><time>2026-04-24T16:13:57.998Z</time></trkpt><trkpt lat="44.8158547430585" lon="4.720678935450611"><ele>141.6</ele><time>2026-04-24T16:13:59.998Z</time></trkpt><trkpt lat="44.815869977492305" lon="4.720547432816912"><ele>142.0</ele><time>2026-04-24T16:14:01.998Z</time></trkpt><trkpt lat="44.8158811908968" lon="4.720405142192597"><ele>142.0</ele><time>2026-04-24T16:14:03.998Z</time></trkpt><trkpt lat="44.81589671670688" lon="4.7202681487769755"><ele>142.0</ele><time>2026-04-24T16:14:05.998Z</time></trkpt><trkpt lat="44.815920164131164" lon="4.720129340862868"><ele>142.0</ele><time>2026-04-24T16:14:07.998Z</time></trkpt><trkpt lat="44.81593592636365" lon="4.720008043440023"><ele>142.0</ele><time>2026-04-24T16:14:09.998Z</time></trkpt><trkpt lat="44.815961340911194" lon="4.719868293167974"><ele>142.0</ele><time>2026-04-24T16:14:11.998Z</time></trkpt><trkpt lat="44.81599428164029" lon="4.719743498419483"><ele>139.2</ele><time>2026-04-24T16:14:13.998Z</time></trkpt><trkpt lat="44.8160124101799" lon="4.719618671540077"><ele>136.39999999999998</ele><time>2026-04-24T16:14:15.998Z</time></trkpt><trkpt lat="44.81603297188301" lon="4.7194914893532465"><ele>133.60000000000002</ele><time>2026-04-24T16:14:17.998Z</time></trkpt><trkpt lat="44.816050096928784" lon="4.719364389233545"><ele>130.8</ele><time>2026-04-24T16:14:19.998Z</time></trkpt><trkpt lat="44.81607320006267" lon="4.719242706775228"><ele>128.0</ele><time>2026-04-24T16:14:21.998Z</time></trkpt><trkpt lat="44.81608341062297" lon="4.719115349064977"><ele>127.99999999999999</ele><time>2026-04-24T16:14:23.999Z</time></trkpt><trkpt lat="44.81609936049491" lon="4.71899382900641"><ele>128.0</ele><time>2026-04-24T16:14:25.998Z</time></trkpt><trkpt lat="44.81611228395644" lon="4.718881231521602"><ele>128.0</ele><time>2026-04-24T16:14:27.998Z</time></trkpt><trkpt lat="44.81612726471825" lon="4.718753394547868"><ele>128.0</ele><time>2026-04-24T16:14:29.999Z</time></trkpt><trkpt lat="44.816146814345885" lon="4.71863770735662"><ele>127.99999999999999</ele><time>2026-04-24T16:14:31.998Z</time></trkpt><trkpt lat="44.816177619193" lon="4.718522426421534"><ele>128.0</ele><time>2026-04-24T16:14:33.999Z</time></trkpt><trkpt lat="44.816196508877034" lon="4.718407467924776"><ele>130.0</ele><time>2026-04-24T16:14:35.998Z</time></trkpt><trkpt lat="44.816220484364685" lon="4.71828472807454"><ele>132.0</ele><time>2026-04-24T16:14:38.998Z</time></trkpt><trkpt lat="44.816254417616676" lon="4.718209958947389"><ele>134.0</ele><time>2026-04-24T16:14:41.998Z</time></trkpt><trkpt lat="44.81632022865237" lon="4.718169561617657"><ele>136.0</ele><time>2026-04-24T16:14:46.998Z</time></trkpt><trkpt lat="44.81638689846631" lon="4.718100027851207"><ele>138.0</ele><time>2026-04-24T16:14:50.998Z</time></trkpt><trkpt lat="44.816450909828" lon="4.718032024444249"><ele>140.0</ele><time>2026-04-24T16:14:55.998Z</time></trkpt><trkpt lat="44.81651578371287" lon="4.7179860996656116"><ele>140.0</ele><time>2026-04-24T16:15:14.998Z</time></trkpt></trkseg></trk></gpx>